Observation data for Fort Chadbourne on 03/12/2018      Previous  Date  Next       Current Mesonet Observations  Soil Data  Daily Summary Page  Observations in Plain Language
KCH1 120500Z 01002KT 07/M06 A3033 RMK A01 T00731055  RH  040%=      5-min Rain = 0
KCH1 120501Z 36002KT 07/M06 A3033 RMK A01 T00731055  RH  040%=      5-min Rain = 0
KCH1 120502Z 00001KT 07/M06 A3033 RMK A01 T00721055  RH  040%=      5-min Rain = 0
KCH1 120503Z 02001KT 07/M06 A3033 RMK A01 T00721055  RH  040%=      5-min Rain = 0
KCH1 120504Z 02001KT 07/M05 A3033 RMK A01 T00721054  RH  040%=      5-min Rain = 0
KCH1 120505Z 03001KT 07/M05 A3033 RMK A01 T00701054  RH  041%=      5-min Rain = 0
KCH1 120506Z 04001KT 07/M06 A3033 RMK A01 T00681055  RH  041%=      5-min Rain = 0
KCH1 120507Z 05002KT 07/M06 A3033 RMK A01 T00661055  RH  042%=      5-min Rain = 0
KCH1 120508Z 06002KT 06/M06 A3033 RMK A01 T00641056  RH  042%=      5-min Rain = 0
KCH1 120509Z 06002KT 06/M06 A3033 RMK A01 T00641056  RH  042%=      5-min Rain = 0
KCH1 120510Z 06002KT 06/M06 A3033 RMK A01 T00631056  RH  042%=      5-min Rain = 0
KCH1 120511Z 07002KT 06/M06 A3033 RMK A01 T00631056  RH  042%=      5-min Rain = 0
KCH1 120512Z 07004KT 06/M05 A3033 RMK A01 T00631054  RH  043%=      5-min Rain = 0
KCH1 120513Z 06002KT 07/M05 A3033 RMK A01 T00651052  RH  043%=      5-min Rain = 0
KCH1 120514Z 06002KT 07/M05 A3033 RMK A01 T00661053  RH  042%=      5-min Rain = 0
KCH1 120515Z 05003KT 07/M05 A3033 RMK A01 T00661053  RH  042%=      5-min Rain = 0
KCH1 120516Z 06003KT 07/M05 A3033 RMK A01 T00671052  RH  042%=      5-min Rain = 0
KCH1 120517Z 05003KT 07/M05 A3033 RMK A01 T00681050  RH  043%=      5-min Rain = 0
KCH1 120518Z 04003KT 07/M05 A3033 RMK A01 T00691049  RH  043%=      5-min Rain = 0
KCH1 120519Z 04004KT 07/M05 A3033 RMK A01 T00701049  RH  042%=      5-min Rain = 0
KCH1 120520Z 04004KT 07/M05 A3033 RMK A01 T00711048  RH  042%=      5-min Rain = 0
KCH1 120521Z 05005KT 07/M05 A3033 RMK A01 T00721047  RH  043%=      5-min Rain = 0
KCH1 120522Z 04005KT 07/M05 A3033 RMK A01 T00721047  RH  042%=      5-min Rain = 0
KCH1 120523Z 04005KT 07/M05 A3033 RMK A01 T00731046  RH  043%=      5-min Rain = 0
KCH1 120524Z 04006KT 07/M05 A3033 RMK A01 T00731045  RH  043%=      5-min Rain = 0
KCH1 120525Z 04007KT 07/M04 A3033 RMK A01 T00741044  RH  043%=      5-min Rain = 0
KCH1 120526Z 04005KT 08/M04 A3033 RMK A01 T00761042  RH  043%=      5-min Rain = 0
KCH1 120527Z 04006KT 08/M04 A3033 RMK A01 T00771041  RH  043%=      5-min Rain = 0
KCH1 120528Z 03006KT 08/M04 A3033 RMK A01 T00771041  RH  043%=      5-min Rain = 0
KCH1 120529Z 03008KT 08/M04 A3033 RMK A01 T00781041  RH  043%=      5-min Rain = 0
KCH1 120530Z 05008KT 08/M04 A3033 RMK A01 T00791040  RH  043%=      5-min Rain = 0
KCH1 120531Z 04008KT 08/M04 A3033 RMK A01 T00811039  RH  042%=      5-min Rain = 0
KCH1 120532Z 04007KT 08/M04 A3033 RMK A01 T00821039  RH  042%=      5-min Rain = 0
KCH1 120533Z 03008KT 08/M04 A3033 RMK A01 T00821039  RH  042%=      5-min Rain = 0
KCH1 120534Z 04009KT 08/M04 A3033 RMK A01 T00821039  RH  042%=      5-min Rain = 0
KCH1 120535Z 04008KT 08/M04 A3033 RMK A01 T00821039  RH  042%=      5-min Rain = 0
KCH1 120536Z 04009KT 08/M04 A3033 RMK A01 T00821038  RH  042%=      5-min Rain = 0
KCH1 120537Z 04009KT 08/M04 A3032 RMK A01 T00821038  RH  043%=      5-min Rain = 0
KCH1 120538Z 04009KT 08/M04 A3033 RMK A01 T00811038  RH  043%=      5-min Rain = 0
KCH1 120539Z 04008KT 08/M04 A3033 RMK A01 T00811038  RH  043%=      5-min Rain = 0
KCH1 120540Z 04008KT 08/M04 A3033 RMK A01 T00821039  RH  042%=      5-min Rain = 0
KCH1 120541Z 04010KT 08/M04 A3033 RMK A01 T00831039  RH  042%=      5-min Rain = 0
KCH1 120542Z 04010KT 08/M04 A3033 RMK A01 T00841039  RH  042%=      5-min Rain = 0
KCH1 120543Z 04011KT 08/M04 A3033 RMK A01 T00841039  RH  042%=      5-min Rain = 0
KCH1 120544Z 04010KT 09/M04 A3033 RMK A01 T00851039  RH  041%=      5-min Rain = 0
KCH1 120545Z 04010KT 09/M04 A3033 RMK A01 T00861040  RH  041%=      5-min Rain = 0
KCH1 120546Z 04007KT 09/M04 A3033 RMK A01 T00861039  RH  041%=      5-min Rain = 0
KCH1 120547Z 04009KT 09/M04 A3033 RMK A01 T00861039  RH  041%=      5-min Rain = 0
KCH1 120548Z 04010KT 09/M04 A3033 RMK A01 T00851039  RH  041%=      5-min Rain = 0
KCH1 120549Z 04007KT 09/M04 A3033 RMK A01 T00851039  RH  041%=      5-min Rain = 0
KCH1 120550Z 04007KT 09/M04 A3033 RMK A01 T00851039  RH  041%=      5-min Rain = 0
KCH1 120551Z 04007KT 09/M04 A3033 RMK A01 T00851039  RH  042%=      5-min Rain = 0
KCH1 120552Z 04008KT 08/M04 A3033 RMK A01 T00841039  RH  042%=      5-min Rain = 0
KCH1 120553Z 04007G12KT 08/M04 A3033 RMK A01 T00841039  RH  042%=      5-min Rain = 0
KCH1 120554Z 03008KT 08/M04 A3033 RMK A01 T00831039  RH  042%=      5-min Rain = 0
KCH1 120555Z 04008KT 08/M04 A3033 RMK A01 T00831039  RH  042%=      5-min Rain = 0
KCH1 120556Z 03010KT 08/M04 A3033 RMK A01 T00831039  RH  042%=      5-min Rain = 0
KCH1 120557Z 04008KT 09/M04 A3033 RMK A01 T00851039  RH  042%=      5-min Rain = 0
KCH1 120558Z 03007KT 09/M04 A3033 RMK A01 T00851038  RH  041%=      5-min Rain = 0
KCH1 120559Z 04008KT 09/M04 A3033 RMK A01 T00851038  RH  042%=      5-min Rain = 0
KCH1 120600Z 04010KT 08/M04 A3033 RMK A01 T00841039  RH  042%=      5-min Rain = 0
KCH1 120601Z 03010KT 08/M04 A3033 RMK A01 T00841039  RH  042%=      5-min Rain = 0
KCH1 120602Z 03010KT 09/M04 A3033 RMK A01 T00851039  RH  041%=      5-min Rain = 0
KCH1 120603Z 04009KT 09/M04 A3033 RMK A01 T00861038  RH  041%=      5-min Rain = 0
KCH1 120604Z 04009KT 09/M04 A3033 RMK A01 T00851038  RH  041%=      5-min Rain = 0
KCH1 120605Z 03010KT 09/M04 A3033 RMK A01 T00851039  RH  042%=      5-min Rain = 0
KCH1 120606Z 04009KT 09/M04 A3033 RMK A01 T00851038  RH  042%=      5-min Rain = 0
KCH1 120607Z 04010KT 08/M04 A3033 RMK A01 T00841038  RH  042%=      5-min Rain = 0
KCH1 120608Z 04009KT 08/M04 A3033 RMK A01 T00841038  RH  042%=      5-min Rain = 0
KCH1 120609Z 04010KT 08/M04 A3033 RMK A01 T00831038  RH  042%=      5-min Rain = 0
KCH1 120610Z 04009KT 08/M04 A3032 RMK A01 T00831038  RH  042%=      5-min Rain = 0
KCH1 120611Z 04010KT 08/M04 A3032 RMK A01 T00831038  RH  042%=      5-min Rain = 0
KCH1 120612Z 04009KT 08/M04 A3032 RMK A01 T00831038  RH  042%=      5-min Rain = 0
KCH1 120613Z 03009KT 08/M04 A3032 RMK A01 T00821038  RH  042%=      5-min Rain = 0
KCH1 120614Z 04008KT 08/M04 A3032 RMK A01 T00821038  RH  042%=      5-min Rain = 0
KCH1 120615Z 04009KT 08/M04 A3032 RMK A01 T00821038  RH  043%=      5-min Rain = 0
KCH1 120616Z 03007KT 08/M04 A3032 RMK A01 T00811038  RH  043%=      5-min Rain = 0
KCH1 120617Z 04009KT 08/M04 A3032 RMK A01 T00811038  RH  043%=      5-min Rain = 0
KCH1 120618Z 04009KT 08/M04 A3032 RMK A01 T00801038  RH  043%=      5-min Rain = 0
KCH1 120619Z 04009KT 08/M04 A3032 RMK A01 T00801038  RH  043%=      5-min Rain = 0
KCH1 120620Z 04009KT 08/M04 A3032 RMK A01 T00801037  RH  043%=      5-min Rain = 0
KCH1 120621Z 04007KT 08/M04 A3032 RMK A01 T00801037  RH  043%=      5-min Rain = 0
KCH1 120622Z 04008KT 08/M04 A3032 RMK A01 T00791037  RH  044%=      5-min Rain = 0
KCH1 120623Z 04010KT 08/M04 A3032 RMK A01 T00791037  RH  044%=      5-min Rain = 0
KCH1 120624Z 03008KT 08/M04 A3032 RMK A01 T00791037  RH  044%=      5-min Rain = 0
KCH1 120625Z 04008KT 08/M04 A3032 RMK A01 T00791037  RH  044%=      5-min Rain = 0
KCH1 120626Z 03007KT 08/M04 A3032 RMK A01 T00791037  RH  044%=      5-min Rain = 0
KCH1 120627Z 04007KT 08/M04 A3032 RMK A01 T00791037  RH  044%=      5-min Rain = 0
KCH1 120628Z 04008KT 08/M04 A3032 RMK A01 T00781037  RH  044%=      5-min Rain = 0
KCH1 120629Z 04009KT 08/M04 A3032 RMK A01 T00791036  RH  044%=      5-min Rain = 0
KCH1 120630Z 04008KT 08/M04 A3032 RMK A01 T00791036  RH  044%=      5-min Rain = 0
KCH1 120631Z 03007KT 08/M04 A3032 RMK A01 T00791036  RH  044%=      5-min Rain = 0
KCH1 120632Z 04008KT 08/M04 A3032 RMK A01 T00781036  RH  044%=      5-min Rain = 0
KCH1 120633Z 03009KT 08/M04 A3032 RMK A01 T00781036  RH  044%=      5-min Rain = 0
KCH1 120634Z 04007KT 08/M04 A3032 RMK A01 T00781036  RH  044%=      5-min Rain = 0
KCH1 120635Z 04009KT 08/M04 A3032 RMK A01 T00781036  RH  044%=      5-min Rain = 0
KCH1 120636Z 03009KT 08/M04 A3032 RMK A01 T00781036  RH  044%=      5-min Rain = 0
KCH1 120637Z 04009KT 08/M04 A3032 RMK A01 T00781036  RH  044%=      5-min Rain = 0
KCH1 120638Z 04008KT 08/M04 A3032 RMK A01 T00781036  RH  044%=      5-min Rain = 0
KCH1 120639Z 04010KT 08/M04 A3032 RMK A01 T00781036  RH  044%=      5-min Rain = 0
KCH1 120640Z 03008KT 08/M04 A3032 RMK A01 T00781036  RH  044%=      5-min Rain = 0
KCH1 120641Z 04007KT 08/M04 A3032 RMK A01 T00781036  RH  044%=      5-min Rain = 0
KCH1 120642Z 04007KT 08/M04 A3032 RMK A01 T00771035  RH  045%=      5-min Rain = 0
KCH1 120643Z 03008KT 08/M04 A3032 RMK A01 T00771035  RH  045%=      5-min Rain = 0
KCH1 120644Z 04007KT 08/M04 A3032 RMK A01 T00771035  RH  045%=      5-min Rain = 0
KCH1 120645Z 04008KT 08/M04 A3032 RMK A01 T00771035  RH  045%=      5-min Rain = 0
KCH1 120646Z 03007KT 08/M04 A3032 RMK A01 T00761035  RH  045%=      5-min Rain = 0
KCH1 120647Z 04007KT 08/M04 A3032 RMK A01 T00761035  RH  045%=      5-min Rain = 0
KCH1 120648Z 03008KT 08/M04 A3032 RMK A01 T00761035  RH  045%=      5-min Rain = 0
KCH1 120649Z 03008KT 08/M04 A3032 RMK A01 T00761035  RH  045%=      5-min Rain = 0
KCH1 120650Z 03008KT 08/M04 A3032 RMK A01 T00761035  RH  045%=      5-min Rain = 0
KCH1 120651Z 03007KT 08/M04 A3032 RMK A01 T00761036  RH  045%=      5-min Rain = 0
KCH1 120652Z 04006KT 08/M04 A3032 RMK A01 T00761035  RH  045%=      5-min Rain = 0
KCH1 120653Z 04006KT 08/M04 A3032 RMK A01 T00761035  RH  045%=      5-min Rain = 0
KCH1 120654Z 03006KT 08/M04 A3032 RMK A01 T00751035  RH  045%=      5-min Rain = 0
KCH1 120655Z 04006KT 08/M04 A3032 RMK A01 T00751035  RH  045%=      5-min Rain = 0
KCH1 120656Z 04006KT 08/M04 A3032 RMK A01 T00751035  RH  046%=      5-min Rain = 0
KCH1 120657Z 04006KT 07/M04 A3032 RMK A01 T00741035  RH  046%=      5-min Rain = 0
KCH1 120658Z 04006KT 07/M04 A3032 RMK A01 T00741035  RH  046%=      5-min Rain = 0
KCH1 120659Z 04008KT 07/M04 A3032 RMK A01 T00741035  RH  046%=      5-min Rain = 0
KCH1 120700Z 03007KT 07/M04 A3033 RMK A01 T00741035  RH  046%=      5-min Rain = 0
KCH1 120701Z 03005KT 08/M03 A3032 RMK A01 T00751034  RH  046%=      5-min Rain = 0
KCH1 120702Z 03005KT 08/M04 A3032 RMK A01 T00751035  RH  046%=      5-min Rain = 0
KCH1 120703Z 03005KT 07/M04 A3032 RMK A01 T00741035  RH  046%=      5-min Rain = 0
KCH1 120704Z 04005KT 07/M03 A3032 RMK A01 T00741034  RH  046%=      5-min Rain = 0
KCH1 120705Z 03005KT 07/M03 A3032 RMK A01 T00731034  RH  046%=      5-min Rain = 0
KCH1 120706Z 03005KT 07/M03 A3033 RMK A01 T00741034  RH  046%=      5-min Rain = 0
KCH1 120707Z 03004KT 07/M03 A3033 RMK A01 T00741034  RH  046%=      5-min Rain = 0
KCH1 120708Z 04006KT 07/M03 A3033 RMK A01 T00731034  RH  047%=      5-min Rain = 0
KCH1 120709Z 03006KT 07/M03 A3033 RMK A01 T00731034  RH  047%=      5-min Rain = 0
KCH1 120710Z 03005KT 07/M03 A3033 RMK A01 T00731034  RH  047%=      5-min Rain = 0
KCH1 120711Z 03005KT 07/M03 A3033 RMK A01 T00731034  RH  047%=      5-min Rain = 0
KCH1 120712Z 03006KT 07/M03 A3033 RMK A01 T00731034  RH  047%=      5-min Rain = 0
KCH1 120713Z 02006KT 07/M03 A3033 RMK A01 T00731033  RH  047%=      5-min Rain = 0
KCH1 120714Z 03006KT 07/M03 A3033 RMK A01 T00731033  RH  047%=      5-min Rain = 0
KCH1 120715Z 03005KT 07/M03 A3033 RMK A01 T00731033  RH  047%=      5-min Rain = 0
KCH1 120716Z 02005KT 07/M03 A3033 RMK A01 T00731033  RH  047%=      5-min Rain = 0
KCH1 120717Z 02006KT 07/M03 A3033 RMK A01 T00731033  RH  047%=      5-min Rain = 0
KCH1 120718Z 02005KT 07/M03 A3033 RMK A01 T00731032  RH  047%=      5-min Rain = 0
KCH1 120719Z 02007KT 07/M03 A3033 RMK A01 T00731032  RH  047%=      5-min Rain = 0
KCH1 120720Z 02007KT 07/M03 A3033 RMK A01 T00731033  RH  047%=      5-min Rain = 0
KCH1 120721Z 02006KT 07/M03 A3033 RMK A01 T00731032  RH  047%=      5-min Rain = 0
KCH1 120722Z 02007KT 07/M03 A3033 RMK A01 T00741032  RH  047%=      5-min Rain = 0
KCH1 120723Z 02006KT 07/M03 A3032 RMK A01 T00741032  RH  047%=      5-min Rain = 0
KCH1 120724Z 02006KT 07/M03 A3032 RMK A01 T00741032  RH  047%=      5-min Rain = 0
KCH1 120725Z 02006KT 07/M03 A3032 RMK A01 T00741032  RH  047%=      5-min Rain = 0
KCH1 120726Z 02007KT 07/M03 A3032 RMK A01 T00741032  RH  047%=      5-min Rain = 0
KCH1 120727Z 02006KT 07/M03 A3032 RMK A01 T00741032  RH  047%=      5-min Rain = 0
KCH1 120728Z 02007KT 08/M03 A3032 RMK A01 T00751032  RH  047%=      5-min Rain = 0
KCH1 120729Z 02008KT 07/M03 A3032 RMK A01 T00741032  RH  047%=      5-min Rain = 0
KCH1 120730Z 02007KT 08/M03 A3032 RMK A01 T00751032  RH  047%=      5-min Rain = 0
KCH1 120731Z 02006KT 08/M03 A3032 RMK A01 T00751032  RH  047%=      5-min Rain = 0
KCH1 120732Z 02006KT 08/M03 A3032 RMK A01 T00751032  RH  047%=      5-min Rain = 0
KCH1 120733Z 02007KT 08/M03 A3032 RMK A01 T00751031  RH  047%=      5-min Rain = 0
KCH1 120734Z 02006KT 08/M03 A3032 RMK A01 T00751031  RH  047%=      5-min Rain = 0
KCH1 120735Z 03007KT 08/M03 A3032 RMK A01 T00751031  RH  047%=      5-min Rain = 0
KCH1 120736Z 02007KT 08/M03 A3032 RMK A01 T00751032  RH  047%=      5-min Rain = 0
KCH1 120737Z 02007KT 08/M03 A3032 RMK A01 T00751032  RH  047%=      5-min Rain = 0
KCH1 120738Z 02009KT 08/M03 A3032 RMK A01 T00761031  RH  047%=      5-min Rain = 0
KCH1 120739Z 03006KT 08/M03 A3032 RMK A01 T00761031  RH  047%=      5-min Rain = 0
KCH1 120740Z 01007KT 08/M03 A3032 RMK A01 T00761031  RH  047%=      5-min Rain = 0
KCH1 120741Z 03007KT 08/M03 A3032 RMK A01 T00761031  RH  047%=      5-min Rain = 0
KCH1 120742Z 02007KT 08/M03 A3032 RMK A01 T00761031  RH  047%=      5-min Rain = 0
KCH1 120743Z 03007KT 08/M03 A3032 RMK A01 T00761031  RH  046%=      5-min Rain = 0
KCH1 120744Z 03005KT 08/M03 A3032 RMK A01 T00761031  RH  046%=      5-min Rain = 0
KCH1 120745Z 03005KT 08/M03 A3032 RMK A01 T00761031  RH  047%=      5-min Rain = 0
KCH1 120746Z 03005KT 08/M03 A3032 RMK A01 T00761030  RH  047%=      5-min Rain = 0
KCH1 120747Z 03006KT 08/M03 A3032 RMK A01 T00751031  RH  047%=      5-min Rain = 0
KCH1 120748Z 03006KT 08/M03 A3032 RMK A01 T00751031  RH  047%=      5-min Rain = 0
KCH1 120749Z 04006KT 08/M03 A3032 RMK A01 T00751031  RH  047%=      5-min Rain = 0
KCH1 120750Z 03006KT 08/M03 A3032 RMK A01 T00751031  RH  047%=      5-min Rain = 0
KCH1 120751Z 03006KT 08/M03 A3032 RMK A01 T00751030  RH  047%=      5-min Rain = 0
KCH1 120752Z 03005KT 08/M03 A3032 RMK A01 T00751030  RH  047%=      5-min Rain = 0
KCH1 120753Z 03006KT 08/M03 A3032 RMK A01 T00751030  RH  047%=      5-min Rain = 0
KCH1 120754Z 04006KT 08/M03 A3032 RMK A01 T00751031  RH  047%=      5-min Rain = 0
KCH1 120755Z 04005KT 08/M03 A3032 RMK A01 T00751030  RH  047%=      5-min Rain = 0
KCH1 120756Z 04007KT 08/M03 A3032 RMK A01 T00751030  RH  047%=      5-min Rain = 0
KCH1 120757Z 04007KT 08/M03 A3032 RMK A01 T00751030  RH  047%=      5-min Rain = 0
KCH1 120758Z 03006KT 08/M03 A3032 RMK A01 T00751030  RH  047%=      5-min Rain = 0
KCH1 120759Z 03006KT 08/M03 A3032 RMK A01 T00751030  RH  047%=      5-min Rain = 0
KCH1 120800Z 03006KT 08/M03 A3032 RMK A01 T00751030  RH  047%=      5-min Rain = 0
KCH1 120801Z 02007KT 08/M03 A3032 RMK A01 T00751030  RH  047%=      5-min Rain = 0
KCH1 120802Z 02008KT 08/M03 A3032 RMK A01 T00751030  RH  047%=      5-min Rain = 0
KCH1 120803Z 01006KT 08/M03 A3032 RMK A01 T00751030  RH  047%=      5-min Rain = 0
KCH1 120804Z 02008KT 08/M03 A3032 RMK A01 T00751030  RH  047%=      5-min Rain = 0
KCH1 120805Z 02006KT 08/M03 A3032 RMK A01 T00751030  RH  047%=      5-min Rain = 0
KCH1 120806Z 02005KT 08/M03 A3032 RMK A01 T00761029  RH  047%=      5-min Rain = 0
KCH1 120807Z 02007KT 08/M03 A3032 RMK A01 T00751030  RH  047%=      5-min Rain = 0
KCH1 120808Z 03005KT 08/M03 A3032 RMK A01 T00751030  RH  047%=      5-min Rain = 0
KCH1 120809Z 02007KT 08/M03 A3032 RMK A01 T00751030  RH  047%=      5-min Rain = 0
KCH1 120810Z 02006KT 08/M03 A3032 RMK A01 T00751030  RH  047%=      5-min Rain = 0
KCH1 120811Z 02005KT 08/M03 A3032 RMK A01 T00761029  RH  047%=      5-min Rain = 0
KCH1 120812Z 03005KT 08/M03 A3032 RMK A01 T00751029  RH  047%=      5-min Rain = 0
KCH1 120813Z 03006KT 08/M03 A3032 RMK A01 T00751029  RH  048%=      5-min Rain = 0
KCH1 120814Z 01008KT 08/M03 A3032 RMK A01 T00751029  RH  048%=      5-min Rain = 0
KCH1 120815Z 03008KT 08/M03 A3032 RMK A01 T00751030  RH  048%=      5-min Rain = 0
KCH1 120816Z 03006KT 08/M03 A3032 RMK A01 T00751029  RH  047%=      5-min Rain = 0
KCH1 120817Z 03006KT 08/M03 A3032 RMK A01 T00751029  RH  047%=      5-min Rain = 0
KCH1 120818Z 02008KT 08/M03 A3032 RMK A01 T00761029  RH  048%=      5-min Rain = 0
KCH1 120819Z 03007KT 08/M03 A3032 RMK A01 T00751029  RH  047%=      5-min Rain = 0
KCH1 120820Z 02006KT 08/M03 A3032 RMK A01 T00751029  RH  048%=      5-min Rain = 0
KCH1 120821Z 01005KT 08/M03 A3032 RMK A01 T00751029  RH  048%=      5-min Rain = 0
KCH1 120822Z 02005KT 08/M03 A3032 RMK A01 T00751029  RH  048%=      5-min Rain = 0
KCH1 120823Z 01005KT 08/M03 A3032 RMK A01 T00761028  RH  048%=      5-min Rain = 0
KCH1 120824Z 01004KT 08/M03 A3032 RMK A01 T00751028  RH  048%=      5-min Rain = 0
KCH1 120825Z 02006KT 08/M03 A3032 RMK A01 T00751028  RH  048%=      5-min Rain = 0
KCH1 120826Z 02007KT 08/M03 A3032 RMK A01 T00751028  RH  048%=      5-min Rain = 0
KCH1 120827Z 02010KT 08/M03 A3033 RMK A01 T00751028  RH  048%=      5-min Rain = 0
KCH1 120828Z 02009KT 08/M03 A3033 RMK A01 T00751028  RH  048%=      5-min Rain = 0
KCH1 120829Z 02006KT 08/M03 A3032 RMK A01 T00761028  RH  048%=      5-min Rain = 0
KCH1 120830Z 01007KT 08/M03 A3032 RMK A01 T00761028  RH  048%=      5-min Rain = 0
KCH1 120831Z 03009G15KT 08/M03 A3032 RMK A01 T00761028  RH  048%=      5-min Rain = 0
KCH1 120832Z 02008KT 08/M03 A3032 RMK A01 T00761027  RH  048%=      5-min Rain = 0
KCH1 120833Z 01005KT 08/M03 A3032 RMK A01 T00761028  RH  048%=      5-min Rain = 0
KCH1 120834Z 01007KT 08/M03 A3032 RMK A01 T00761028  RH  048%=      5-min Rain = 0
KCH1 120835Z 02010KT 08/M03 A3032 RMK A01 T00761028  RH  048%=      5-min Rain = 0
KCH1 120836Z 03006KT 08/M03 A3032 RMK A01 T00751028  RH  048%=      5-min Rain = 0
KCH1 120837Z 02005KT 08/M03 A3032 RMK A01 T00751028  RH  048%=      5-min Rain = 0
KCH1 120838Z 04006KT 08/M03 A3032 RMK A01 T00751028  RH  048%=      5-min Rain = 0
KCH1 120839Z 03006KT 08/M03 A3032 RMK A01 T00751027  RH  048%=      5-min Rain = 0
KCH1 120840Z 03006KT 08/M03 A3032 RMK A01 T00751027  RH  048%=      5-min Rain = 0
KCH1 120841Z 03005KT 08/M03 A3032 RMK A01 T00751027  RH  048%=      5-min Rain = 0
KCH1 120842Z 04005KT 07/M03 A3032 RMK A01 T00741027  RH  048%=      5-min Rain = 0
KCH1 120843Z 04006KT 07/M03 A3032 RMK A01 T00741027  RH  049%=      5-min Rain = 0
KCH1 120844Z 03006KT 07/M03 A3032 RMK A01 T00731027  RH  049%=      5-min Rain = 0
KCH1 120845Z 03009G14KT 07/M03 A3032 RMK A01 T00731027  RH  049%=      5-min Rain = 0
KCH1 120846Z 03010KT 07/M03 A3032 RMK A01 T00731027  RH  049%=      5-min Rain = 0
KCH1 120847Z 03006KT 07/M03 A3032 RMK A01 T00731027  RH  049%=      5-min Rain = 0
KCH1 120848Z 03005KT 07/M03 A3032 RMK A01 T00741027  RH  049%=      5-min Rain = 0
KCH1 120849Z 03006KT 07/M03 A3032 RMK A01 T00741026  RH  049%=      5-min Rain = 0
KCH1 120850Z 04007KT 07/M03 A3032 RMK A01 T00731027  RH  049%=      5-min Rain = 0
KCH1 120851Z 03005KT 07/M03 A3032 RMK A01 T00731027  RH  049%=      5-min Rain = 0
KCH1 120852Z 02006KT 07/M03 A3032 RMK A01 T00731026  RH  049%=      5-min Rain = 0
KCH1 120853Z 03006KT 07/M03 A3032 RMK A01 T00721027  RH  049%=      5-min Rain = 0
KCH1 120854Z 04005KT 07/M03 A3032 RMK A01 T00731026  RH  049%=      5-min Rain = 0
KCH1 120855Z 04006KT 07/M03 A3032 RMK A01 T00721026  RH  049%=      5-min Rain = 0
KCH1 120856Z 03005KT 07/M03 A3032 RMK A01 T00721026  RH  049%=      5-min Rain = 0
KCH1 120857Z 02003KT 07/M03 A3032 RMK A01 T00721027  RH  049%=      5-min Rain = 0
KCH1 120858Z 04004KT 07/M03 A3032 RMK A01 T00721026  RH  050%=      5-min Rain = 0
KCH1 120859Z 05009KT 07/M03 A3032 RMK A01 T00721027  RH  050%=      5-min Rain = 0
KCH1 120900Z 04006KT 07/M03 A3032 RMK A01 T00721027  RH  050%=      5-min Rain = 0
KCH1 120901Z 04005KT 07/M03 A3032 RMK A01 T00721026  RH  050%=      5-min Rain = 0
KCH1 120902Z 04007KT 07/M03 A3032 RMK A01 T00721026  RH  050%=      5-min Rain = 0
KCH1 120903Z 04007KT 07/M03 A3032 RMK A01 T00711026  RH  050%=      5-min Rain = 0
KCH1 120904Z 04005KT 07/M03 A3032 RMK A01 T00711026  RH  050%=      5-min Rain = 0
KCH1 120905Z 04006KT 07/M03 A3032 RMK A01 T00711026  RH  050%=      5-min Rain = 0
KCH1 120906Z 04007KT 07/M03 A3032 RMK A01 T00711026  RH  050%=      5-min Rain = 0
KCH1 120907Z 04008KT 07/M03 A3031 RMK A01 T00711026  RH  050%=      5-min Rain = 0
KCH1 120908Z 04005KT 07/M03 A3031 RMK A01 T00711026  RH  050%=      5-min Rain = 0
KCH1 120909Z 04005KT 07/M03 A3031 RMK A01 T00711026  RH  050%=      5-min Rain = 0
KCH1 120910Z 04007KT 07/M03 A3031 RMK A01 T00711026  RH  050%=      5-min Rain = 0
KCH1 120911Z 04006KT 07/M03 A3031 RMK A01 T00701026  RH  050%=      5-min Rain = 0
KCH1 120912Z 05007KT 07/M03 A3031 RMK A01 T00701026  RH  051%=      5-min Rain = 0
KCH1 120913Z 04007KT 07/M03 A3031 RMK A01 T00701026  RH  051%=      5-min Rain = 0
KCH1 120914Z 04006KT 07/M03 A3031 RMK A01 T00701026  RH  051%=      5-min Rain = 0
KCH1 120915Z 04008KT 07/M03 A3031 RMK A01 T00701026  RH  051%=      5-min Rain = 0
KCH1 120916Z 04008KT 07/M03 A3032 RMK A01 T00701026  RH  051%=      5-min Rain = 0
KCH1 120917Z 03006KT 07/M03 A3032 RMK A01 T00701026  RH  051%=      5-min Rain = 0
KCH1 120918Z 05005KT 07/M03 A3032 RMK A01 T00701026  RH  051%=      5-min Rain = 0
KCH1 120919Z 05008KT 07/M03 A3032 RMK A01 T00701026  RH  051%=      5-min Rain = 0
KCH1 120920Z 04008KT 07/M03 A3032 RMK A01 T00691026  RH  051%=      5-min Rain = 0
KCH1 120921Z 03006KT 07/M03 A3032 RMK A01 T00701026  RH  051%=      5-min Rain = 0
KCH1 120922Z 03006KT 07/M03 A3032 RMK A01 T00691026  RH  051%=      5-min Rain = 0
KCH1 120923Z 04005KT 07/M03 A3032 RMK A01 T00701025  RH  051%=      5-min Rain = 0
KCH1 120924Z 03007KT 07/M03 A3032 RMK A01 T00691025  RH  051%=      5-min Rain = 0
KCH1 120925Z 03009KT 07/M03 A3032 RMK A01 T00691026  RH  051%=      5-min Rain = 0
KCH1 120926Z 03008KT 07/M03 A3032 RMK A01 T00691026  RH  051%=      5-min Rain = 0
KCH1 120927Z 03006KT 07/M03 A3032 RMK A01 T00701026  RH  051%=      5-min Rain = 0
KCH1 120928Z 03006KT 07/M03 A3032 RMK A01 T00691026  RH  050%=      5-min Rain = 0
KCH1 120929Z 03006KT 07/M03 A3032 RMK A01 T00691026  RH  051%=      5-min Rain = 0
KCH1 120930Z 04006KT 07/M03 A3032 RMK A01 T00691026  RH  051%=      5-min Rain = 0
KCH1 120931Z 04006KT 07/M03 A3032 RMK A01 T00691026  RH  051%=      5-min Rain = 0
KCH1 120932Z 04007KT 07/M03 A3032 RMK A01 T00691026  RH  051%=      5-min Rain = 0
KCH1 120933Z 05008KT 07/M03 A3032 RMK A01 T00691026  RH  051%=      5-min Rain = 0
KCH1 120934Z 04006KT 07/M03 A3032 RMK A01 T00691026  RH  051%=      5-min Rain = 0
KCH1 120935Z 05004KT 07/M03 A3032 RMK A01 T00691026  RH  051%=      5-min Rain = 0
KCH1 120936Z 04008KT 07/M03 A3032 RMK A01 T00681025  RH  051%=      5-min Rain = 0
KCH1 120937Z 04008KT 07/M03 A3032 RMK A01 T00681025  RH  051%=      5-min Rain = 0
KCH1 120938Z 05007KT 07/M03 A3032 RMK A01 T00681026  RH  051%=      5-min Rain = 0
KCH1 120939Z 05009KT 07/M03 A3032 RMK A01 T00681026  RH  051%=      5-min Rain = 0
KCH1 120940Z 03006KT 07/M03 A3032 RMK A01 T00681026  RH  051%=      5-min Rain = 0
KCH1 120941Z 04006KT 07/M03 A3032 RMK A01 T00681026  RH  051%=      5-min Rain = 0
KCH1 120942Z 04006KT 07/M03 A3032 RMK A01 T00671026  RH  052%=      5-min Rain = 0
KCH1 120943Z 04007KT 07/M03 A3032 RMK A01 T00671025  RH  052%=      5-min Rain = 0
KCH1 120944Z 04007KT 07/M03 A3032 RMK A01 T00671026  RH  052%=      5-min Rain = 0
KCH1 120945Z 04007KT 07/M03 A3032 RMK A01 T00671026  RH  052%=      5-min Rain = 0
KCH1 120946Z 04007KT 07/M03 A3032 RMK A01 T00671026  RH  052%=      5-min Rain = 0
KCH1 120947Z 03009KT 07/M03 A3032 RMK A01 T00671026  RH  052%=      5-min Rain = 0
KCH1 120948Z 04009KT 07/M03 A3032 RMK A01 T00671025  RH  052%=      5-min Rain = 0
KCH1 120949Z 04007KT 07/M03 A3032 RMK A01 T00671025  RH  052%=      5-min Rain = 0
KCH1 120950Z 05005KT 07/M03 A3032 RMK A01 T00671025  RH  052%=      5-min Rain = 0
KCH1 120951Z 05005KT 07/M03 A3032 RMK A01 T00661025  RH  052%=      5-min Rain = 0
KCH1 120952Z 05006KT 07/M03 A3032 RMK A01 T00651025  RH  053%=      5-min Rain = 0
KCH1 120953Z 04007KT 06/M03 A3033 RMK A01 T00641025  RH  053%=      5-min Rain = 0
KCH1 120954Z 06007KT 06/M03 A3033 RMK A01 T00641025  RH  053%=      5-min Rain = 0
KCH1 120955Z 05008KT 06/M03 A3032 RMK A01 T00641025  RH  053%=      5-min Rain = 0
KCH1 120956Z 05009KT 06/M03 A3032 RMK A01 T00641025  RH  053%=      5-min Rain = 0
KCH1 120957Z 05010KT 07/M03 A3032 RMK A01 T00651025  RH  053%=      5-min Rain = 0
KCH1 120958Z 05010KT 07/M03 A3032 RMK A01 T00651025  RH  052%=      5-min Rain = 0
KCH1 120959Z 05009KT 07/M03 A3032 RMK A01 T00651025  RH  052%=      5-min Rain = 0
KCH1 121000Z 04007KT 07/M03 A3033 RMK A01 T00651025  RH  053%=      5-min Rain = 0
KCH1 121001Z 05008KT 07/M03 A3033 RMK A01 T00651025  RH  053%=      5-min Rain = 0
KCH1 121002Z 05009KT 07/M03 A3033 RMK A01 T00651025  RH  053%=      5-min Rain = 0
KCH1 121003Z 06009KT 07/M02 A3033 RMK A01 T00651024  RH  053%=      5-min Rain = 0
KCH1 121004Z 04008KT 07/M02 A3033 RMK A01 T00651024  RH  053%=      5-min Rain = 0
KCH1 121005Z 05007KT 07/M02 A3033 RMK A01 T00651024  RH  053%=      5-min Rain = 0
KCH1 121006Z 05007KT 06/M02 A3033 RMK A01 T00641024  RH  053%=      5-min Rain = 0
KCH1 121007Z 04005KT 06/M02 A3033 RMK A01 T00631024  RH  054%=      5-min Rain = 0
KCH1 121008Z 04006KT 06/M02 A3033 RMK A01 T00631024  RH  054%=      5-min Rain = 0
KCH1 121009Z 04007KT 06/M02 A3033 RMK A01 T00621024  RH  054%=      5-min Rain = 0
KCH1 121010Z 05007KT 06/M02 A3033 RMK A01 T00621024  RH  054%=      5-min Rain = 0
KCH1 121011Z 05007KT 06/M02 A3033 RMK A01 T00621024  RH  054%=      5-min Rain = 0
KCH1 121012Z 05008KT 06/M03 A3033 RMK A01 T00621025  RH  054%=      5-min Rain = 0
KCH1 121013Z 05005KT 06/M03 A3033 RMK A01 T00621025  RH  054%=      5-min Rain = 0
KCH1 121014Z 05007KT 06/M02 A3033 RMK A01 T00631024  RH  054%=      5-min Rain = 0
KCH1 121015Z 05006KT 06/M02 A3033 RMK A01 T00621024  RH  054%=      5-min Rain = 0
KCH1 121016Z 06005KT 06/M02 A3033 RMK A01 T00621024  RH  054%=      5-min Rain = 0
KCH1 121017Z 05005KT 06/M02 A3033 RMK A01 T00621024  RH  054%=      5-min Rain = 0
KCH1 121018Z 06005KT 06/M02 A3033 RMK A01 T00611024  RH  054%=      5-min Rain = 0
KCH1 121019Z 05004KT 06/M02 A3033 RMK A01 T00611024  RH  054%=      5-min Rain = 0
KCH1 121020Z 06005KT 06/M02 A3033 RMK A01 T00611024  RH  054%=      5-min Rain = 0
KCH1 121021Z 05004KT 06/M02 A3033 RMK A01 T00611024  RH  054%=      5-min Rain = 0
KCH1 121022Z 05004KT 06/M02 A3034 RMK A01 T00611024  RH  054%=      5-min Rain = 0
KCH1 121023Z 05004KT 06/M02 A3034 RMK A01 T00611024  RH  055%=      5-min Rain = 0
KCH1 121024Z 05005KT 06/M02 A3034 RMK A01 T00601024  RH  055%=      5-min Rain = 0
KCH1 121025Z 05005KT 06/M02 A3034 RMK A01 T00601024  RH  055%=      5-min Rain = 0
KCH1 121026Z 06006KT 06/M02 A3034 RMK A01 T00601024  RH  055%=      5-min Rain = 0
KCH1 121027Z 06004KT 06/M02 A3034 RMK A01 T00601024  RH  055%=      5-min Rain = 0
KCH1 121028Z 05006KT 06/M02 A3034 RMK A01 T00601024  RH  055%=      5-min Rain = 0
KCH1 121029Z 06005KT 06/M02 A3034 RMK A01 T00601024  RH  055%=      5-min Rain = 0
KCH1 121030Z 06006KT 06/M02 A3034 RMK A01 T00601024  RH  055%=      5-min Rain = 0
KCH1 121031Z 05006KT 06/M02 A3034 RMK A01 T00601024  RH  055%=      5-min Rain = 0
KCH1 121032Z 06005KT 06/M02 A3034 RMK A01 T00601023  RH  055%=      5-min Rain = 0
KCH1 121033Z 06005KT 06/M02 A3034 RMK A01 T00591024  RH  055%=      5-min Rain = 0
KCH1 121034Z 06004KT 06/M02 A3034 RMK A01 T00591023  RH  055%=      5-min Rain = 0
KCH1 121035Z 06006KT 06/M02 A3034 RMK A01 T00591023  RH  056%=      5-min Rain = 0
KCH1 121036Z 06005KT 06/M02 A3034 RMK A01 T00591023  RH  055%=      5-min Rain = 0
KCH1 121037Z 06004KT 06/M02 A3034 RMK A01 T00591023  RH  056%=      5-min Rain = 0
KCH1 121038Z 05005KT 06/M02 A3034 RMK A01 T00591023  RH  056%=      5-min Rain = 0
KCH1 121039Z 05005KT 06/M02 A3034 RMK A01 T00581023  RH  056%=      5-min Rain = 0
KCH1 121040Z 05006KT 06/M02 A3034 RMK A01 T00591023  RH  056%=      5-min Rain = 0
KCH1 121041Z 04007KT 06/M02 A3034 RMK A01 T00581023  RH  056%=      5-min Rain = 0
KCH1 121042Z 05007KT 06/M02 A3034 RMK A01 T00591023  RH  056%=      5-min Rain = 0
KCH1 121043Z 04005KT 06/M02 A3034 RMK A01 T00601023  RH  055%=      5-min Rain = 0
KCH1 121044Z 04006KT 06/M02 A3034 RMK A01 T00601023  RH  055%=      5-min Rain = 0
KCH1 121045Z 04005KT 06/M02 A3035 RMK A01 T00601023  RH  055%=      5-min Rain = 0
KCH1 121046Z 03004KT 06/M02 A3035 RMK A01 T00591023  RH  056%=      5-min Rain = 0
KCH1 121047Z 04002KT 06/M02 A3035 RMK A01 T00591023  RH  056%=      5-min Rain = 0
KCH1 121048Z 03002KT 06/M02 A3035 RMK A01 T00591023  RH  056%=      5-min Rain = 0
KCH1 121049Z 03003KT 06/M02 A3035 RMK A01 T00581023  RH  056%=      5-min Rain = 0
KCH1 121050Z 02002KT 06/M02 A3035 RMK A01 T00581023  RH  056%=      5-min Rain = 0
KCH1 121051Z 04003KT 06/M02 A3035 RMK A01 T00591022  RH  056%=      5-min Rain = 0
KCH1 121052Z 04003KT 06/M02 A3035 RMK A01 T00581023  RH  056%=      5-min Rain = 0
KCH1 121053Z 03003KT 06/M02 A3035 RMK A01 T00581023  RH  056%=      5-min Rain = 0
KCH1 121054Z 04004KT 06/M02 A3035 RMK A01 T00581023  RH  056%=      5-min Rain = 0
KCH1 121055Z 02003KT 06/M02 A3035 RMK A01 T00581022  RH  056%=      5-min Rain = 0
KCH1 121056Z 03004KT 06/M02 A3035 RMK A01 T00581022  RH  056%=      5-min Rain = 0
KCH1 121057Z 01003KT 06/M02 A3036 RMK A01 T00581023  RH  056%=      5-min Rain = 0
KCH1 121058Z 03002KT 06/M02 A3036 RMK A01 T00581022  RH  056%=      5-min Rain = 0
KCH1 121059Z 03002KT 06/M02 A3036 RMK A01 T00581022  RH  057%=      5-min Rain = 0
KCH1 121100Z 03002KT 06/M02 A3036 RMK A01 T00571022  RH  057%=      5-min Rain = 0
KCH1 121101Z 04004KT 06/M02 A3036 RMK A01 T00571022  RH  057%=      5-min Rain = 0
KCH1 121102Z 04005KT 06/M02 A3036 RMK A01 T00571023  RH  057%=      5-min Rain = 0
KCH1 121103Z 03003KT 06/M02 A3036 RMK A01 T00561023  RH  057%=      5-min Rain = 0
KCH1 121104Z 04004KT 06/M02 A3036 RMK A01 T00571023  RH  057%=      5-min Rain = 0
KCH1 121105Z 04003KT 06/M02 A3036 RMK A01 T00571023  RH  057%=      5-min Rain = 0
KCH1 121106Z 04005KT 06/M02 A3036 RMK A01 T00571022  RH  057%=      5-min Rain = 0
KCH1 121107Z 04005KT 06/M02 A3036 RMK A01 T00571022  RH  057%=      5-min Rain = 0
KCH1 121108Z 02003KT 06/M02 A3036 RMK A01 T00571023  RH  057%=      5-min Rain = 0
KCH1 121109Z 04003KT 06/M02 A3036 RMK A01 T00571022  RH  057%=      5-min Rain = 0
KCH1 121110Z 05003KT 06/M02 A3036 RMK A01 T00571022  RH  057%=      5-min Rain = 0
KCH1 121111Z 05005KT 06/M02 A3036 RMK A01 T00571022  RH  057%=      5-min Rain = 0
KCH1 121112Z 04005KT 06/M02 A3036 RMK A01 T00561022  RH  057%=      5-min Rain = 0
KCH1 121113Z 04005KT 06/M02 A3036 RMK A01 T00561022  RH  057%=      5-min Rain = 0
KCH1 121114Z 04006KT 06/M02 A3036 RMK A01 T00561022  RH  057%=      5-min Rain = 0
KCH1 121115Z 05005KT 06/M02 A3036 RMK A01 T00571022  RH  057%=      5-min Rain = 0
KCH1 121116Z 05005KT 06/M02 A3036 RMK A01 T00571021  RH  057%=      5-min Rain = 0
KCH1 121117Z 05005KT 06/M02 A3036 RMK A01 T00571021  RH  057%=      5-min Rain = 0
KCH1 121118Z 05005KT 06/M02 A3036 RMK A01 T00561021  RH  057%=      5-min Rain = 0
KCH1 121119Z 05005KT 06/M02 A3036 RMK A01 T00561021  RH  058%=      5-min Rain = 0
KCH1 121120Z 04004KT 06/M02 A3036 RMK A01 T00551021  RH  058%=      5-min Rain = 0
KCH1 121121Z 04004KT 06/M02 A3036 RMK A01 T00551021  RH  058%=      5-min Rain = 0
KCH1 121122Z 05003KT 06/M02 A3036 RMK A01 T00551020  RH  058%=      5-min Rain = 0
KCH1 121123Z 04004KT 06/M02 A3036 RMK A01 T00551020  RH  058%=      5-min Rain = 0
KCH1 121124Z 04003KT 05/M02 A3036 RMK A01 T00541021  RH  058%=      5-min Rain = 0
KCH1 121125Z 04002KT 05/M02 A3036 RMK A01 T00541021  RH  058%=      5-min Rain = 0
KCH1 121126Z 03002KT 06/M02 A3036 RMK A01 T00551020  RH  059%=      5-min Rain = 0
KCH1 121127Z 04003KT 05/M02 A3036 RMK A01 T00541020  RH  059%=      5-min Rain = 0
KCH1 121128Z 03002KT 05/M02 A3037 RMK A01 T00541021  RH  058%=      5-min Rain = 0
KCH1 121129Z 02002KT 06/M02 A3037 RMK A01 T00551021  RH  058%=      5-min Rain = 0
KCH1 121130Z 04001KT 05/M02 A3037 RMK A01 T00541021  RH  058%=      5-min Rain = 0
KCH1 121131Z 05000KT 05/M02 A3037 RMK A01 T00541021  RH  058%=      5-min Rain = 0
KCH1 121132Z 04000KT 05/M02 A3037 RMK A01 T00541021  RH  058%=      5-min Rain = 0
KCH1 121133Z 03001KT 05/M02 A3037 RMK A01 T00541021  RH  058%=      5-min Rain = 0
KCH1 121134Z 03001KT 05/M02 A3037 RMK A01 T00541021  RH  058%=      5-min Rain = 0
KCH1 121135Z 02001KT 05/M02 A3037 RMK A01 T00541021  RH  058%=      5-min Rain = 0
KCH1 121136Z 34001KT 05/M02 A3037 RMK A01 T00541021  RH  058%=      5-min Rain = 0
KCH1 121137Z 01001KT 05/M02 A3037 RMK A01 T00541021  RH  058%=      5-min Rain = 0
KCH1 121138Z 03002KT 05/M02 A3037 RMK A01 T00541021  RH  058%=      5-min Rain = 0
KCH1 121139Z 03002KT 05/M02 A3037 RMK A01 T00541021  RH  058%=      5-min Rain = 0
KCH1 121140Z 01002KT 05/M02 A3037 RMK A01 T00541021  RH  058%=      5-min Rain = 0
KCH1 121141Z 00002KT 05/M02 A3037 RMK A01 T00531021  RH  059%=      5-min Rain = 0
KCH1 121142Z 04002KT 05/M02 A3037 RMK A01 T00531021  RH  059%=      5-min Rain = 0
KCH1 121143Z 06003KT 05/M02 A3037 RMK A01 T00531021  RH  059%=      5-min Rain = 0
KCH1 121144Z 05004KT 05/M02 A3037 RMK A01 T00531021  RH  059%=      5-min Rain = 0
KCH1 121145Z 05005KT 05/M02 A3037 RMK A01 T00531021  RH  059%=      5-min Rain = 0
KCH1 121146Z 05006KT 05/M02 A3037 RMK A01 T00521022  RH  059%=      5-min Rain = 0
KCH1 121147Z 03006KT 05/M02 A3037 RMK A01 T00531022  RH  059%=      5-min Rain = 0
KCH1 121148Z 04005KT 05/M02 A3037 RMK A01 T00531021  RH  059%=      5-min Rain = 0
KCH1 121149Z 04006KT 05/M02 A3037 RMK A01 T00521021  RH  059%=      5-min Rain = 0
KCH1 121150Z 04006KT 05/M02 A3037 RMK A01 T00521021  RH  059%=      5-min Rain = 0
KCH1 121151Z 05005KT 05/M02 A3037 RMK A01 T00511021  RH  060%=      5-min Rain = 0
KCH1 121152Z 04005KT 05/M02 A3037 RMK A01 T00501021  RH  060%=      5-min Rain = 0
KCH1 121153Z 04005KT 05/M02 A3037 RMK A01 T00501021  RH  060%=      5-min Rain = 0
KCH1 121154Z 04005KT 05/M02 A3037 RMK A01 T00491021  RH  060%=      5-min Rain = 0
KCH1 121155Z 04006KT 05/M02 A3037 RMK A01 T00491021  RH  060%=      5-min Rain = 0
KCH1 121156Z 04005KT 05/M02 A3037 RMK A01 T00491021  RH  061%=      5-min Rain = 0
KCH1 121157Z 05005KT 05/M02 A3037 RMK A01 T00481021  RH  061%=      5-min Rain = 0
KCH1 121158Z 04005KT 05/M02 A3037 RMK A01 T00481020  RH  061%=      5-min Rain = 0
KCH1 121159Z 05005KT 05/M02 A3037 RMK A01 T00481021  RH  061%=      5-min Rain = 0
KCH1 121200Z 05005KT 05/M02 A3037 RMK A01 T00471020  RH  061%=      5-min Rain = 0
KCH1 121201Z 05004KT 05/M02 A3037 RMK A01 T00471021  RH  062%=      5-min Rain = 0
KCH1 121202Z 05004KT 05/M02 A3037 RMK A01 T00471021  RH  062%=      5-min Rain = 0
KCH1 121203Z 04003KT 05/M02 A3037 RMK A01 T00471021  RH  062%=      5-min Rain = 0
KCH1 121204Z 02003KT 05/M02 A3037 RMK A01 T00471021  RH  062%=      5-min Rain = 0
KCH1 121205Z 03003KT 05/M02 A3037 RMK A01 T00461021  RH  062%=      5-min Rain = 0
KCH1 121206Z 02004KT 05/M02 A3037 RMK A01 T00461021  RH  062%=      5-min Rain = 0
KCH1 121207Z 03005KT 05/M02 A3037 RMK A01 T00461021  RH  062%=      5-min Rain = 0
KCH1 121208Z 04005KT 05/M02 A3037 RMK A01 T00471021  RH  061%=      5-min Rain = 0
KCH1 121209Z 04004KT 05/M02 A3037 RMK A01 T00471021  RH  061%=      5-min Rain = 0
KCH1 121210Z 04005KT 05/M02 A3037 RMK A01 T00471021  RH  061%=      5-min Rain = 0
KCH1 121211Z 03005KT 05/M02 A3037 RMK A01 T00471021  RH  061%=      5-min Rain = 0
KCH1 121212Z 03003KT 05/M02 A3037 RMK A01 T00471021  RH  062%=      5-min Rain = 0
KCH1 121213Z 02004KT 05/M02 A3037 RMK A01 T00471020  RH  062%=      5-min Rain = 0
KCH1 121214Z 03004KT 05/M02 A3037 RMK A01 T00471020  RH  062%=      5-min Rain = 0
KCH1 121215Z 03005KT 05/M02 A3037 RMK A01 T00461021  RH  062%=      5-min Rain = 0
KCH1 121216Z 02004KT 05/M02 A3038 RMK A01 T00461021  RH  062%=      5-min Rain = 0
KCH1 121217Z 03005KT 05/M02 A3038 RMK A01 T00471020  RH  062%=      5-min Rain = 0
KCH1 121218Z 03004KT 05/M02 A3038 RMK A01 T00471020  RH  062%=      5-min Rain = 0
KCH1 121219Z 02005KT 05/M02 A3038 RMK A01 T00471021  RH  062%=      5-min Rain = 0
KCH1 121220Z 02006KT 05/M02 A3038 RMK A01 T00471021  RH  062%=      5-min Rain = 0
KCH1 121221Z 02005KT 05/M02 A3037 RMK A01 T00471020  RH  062%=      5-min Rain = 0
KCH1 121222Z 02004KT 05/M02 A3037 RMK A01 T00471020  RH  062%=      5-min Rain = 0
KCH1 121223Z 02003KT 05/M02 A3037 RMK A01 T00471020  RH  062%=      5-min Rain = 0
KCH1 121224Z 03003KT 05/M02 A3037 RMK A01 T00471020  RH  062%=      5-min Rain = 0
KCH1 121225Z 03006KT 05/M02 A3037 RMK A01 T00471020  RH  062%=      5-min Rain = 0
KCH1 121226Z 03005KT 05/M02 A3037 RMK A01 T00471020  RH  062%=      5-min Rain = 0
KCH1 121227Z 03005KT 05/M02 A3037 RMK A01 T00461020  RH  062%=      5-min Rain = 0
KCH1 121228Z 03006KT 05/M02 A3037 RMK A01 T00471020  RH  062%=      5-min Rain = 0
KCH1 121229Z 03004KT 05/M02 A3038 RMK A01 T00471020  RH  062%=      5-min Rain = 0
KCH1 121230Z 03005KT 05/M02 A3038 RMK A01 T00471020  RH  062%=      5-min Rain = 0
KCH1 121231Z 03004KT 05/M02 A3038 RMK A01 T00471020  RH  062%=      5-min Rain = 0
KCH1 121232Z 03005KT 05/M02 A3038 RMK A01 T00471020  RH  062%=      5-min Rain = 0
KCH1 121233Z 03005KT 05/M02 A3038 RMK A01 T00471020  RH  062%=      5-min Rain = 0
KCH1 121234Z 01004KT 05/M02 A3038 RMK A01 T00471020  RH  062%=      5-min Rain = 0
KCH1 121235Z 02004KT 05/M02 A3038 RMK A01 T00471020  RH  062%=      5-min Rain = 0
KCH1 121236Z 02005KT 05/M02 A3038 RMK A01 T00471020  RH  062%=      5-min Rain = 0
KCH1 121237Z 02006KT 05/M02 A3038 RMK A01 T00471020  RH  062%=      5-min Rain = 0
KCH1 121238Z 02005KT 05/M02 A3038 RMK A01 T00471020  RH  062%=      5-min Rain = 0
KCH1 121239Z 03006KT 05/M02 A3038 RMK A01 T00471020  RH  062%=      5-min Rain = 0
KCH1 121240Z 03004KT 05/M02 A3038 RMK A01 T00471020  RH  062%=      5-min Rain = 0
KCH1 121241Z 03005KT 05/M02 A3038 RMK A01 T00471020  RH  062%=      5-min Rain = 0
KCH1 121242Z 03004KT 05/M02 A3038 RMK A01 T00471020  RH  062%=      5-min Rain = 0
KCH1 121243Z 03005KT 05/M02 A3038 RMK A01 T00471020  RH  062%=      5-min Rain = 0
KCH1 121244Z 03005KT 05/M02 A3038 RMK A01 T00461020  RH  062%=      5-min Rain = 0
KCH1 121245Z 03007KT 05/M02 A3038 RMK A01 T00461020  RH  062%=      5-min Rain = 0
KCH1 121246Z 02006KT 05/M02 A3038 RMK A01 T00461020  RH  062%=      5-min Rain = 0
KCH1 121247Z 02005KT 05/M02 A3038 RMK A01 T00461020  RH  062%=      5-min Rain = 0
KCH1 121248Z 03006KT 05/M02 A3038 RMK A01 T00461020  RH  062%=      5-min Rain = 0
KCH1 121249Z 03007KT 05/M02 A3038 RMK A01 T00461020  RH  062%=      5-min Rain = 0
KCH1 121250Z 03007KT 05/M02 A3038 RMK A01 T00461020  RH  062%=      5-min Rain = 0
KCH1 121251Z 03007KT 05/M02 A3038 RMK A01 T00461020  RH  062%=      5-min Rain = 0
KCH1 121252Z 04007KT 05/M02 A3038 RMK A01 T00461020  RH  062%=      5-min Rain = 0
KCH1 121253Z 04006KT 05/M02 A3038 RMK A01 T00461020  RH  062%=      5-min Rain = 0
KCH1 121254Z 03005KT 05/M02 A3038 RMK A01 T00461020  RH  062%=      5-min Rain = 0
KCH1 121255Z 03006KT 05/M02 A3038 RMK A01 T00461020  RH  062%=      5-min Rain = 0
KCH1 121256Z 03004KT 05/M02 A3038 RMK A01 T00461020  RH  062%=      5-min Rain = 0
KCH1 121257Z 02005KT 05/M02 A3038 RMK A01 T00461020  RH  062%=      5-min Rain = 0
KCH1 121258Z 03004KT 05/M02 A3038 RMK A01 T00461019  RH  062%=      5-min Rain = 0
KCH1 121259Z 03004KT 05/M02 A3038 RMK A01 T00461020  RH  062%=      5-min Rain = 0
KCH1 121300Z 03003KT 05/M02 A3038 RMK A01 T00461020  RH  062%=      5-min Rain = 0
KCH1 121301Z 03003KT 05/M02 A3038 RMK A01 T00461019  RH  063%=      5-min Rain = 0
KCH1 121302Z 02004KT 05/M02 A3038 RMK A01 T00461020  RH  062%=      5-min Rain = 0
KCH1 121303Z 03003KT 05/M02 A3038 RMK A01 T00461020  RH  062%=      5-min Rain = 0
KCH1 121304Z 03004KT 05/M02 A3038 RMK A01 T00471019  RH  062%=      5-min Rain = 0
KCH1 121305Z 03004KT 05/M02 A3038 RMK A01 T00471020  RH  062%=      5-min Rain = 0
KCH1 121306Z 04006KT 05/M02 A3038 RMK A01 T00481019  RH  062%=      5-min Rain = 0
KCH1 121307Z 04005KT 05/M02 A3038 RMK A01 T00471020  RH  062%=      5-min Rain = 0
KCH1 121308Z 04005KT 05/M02 A3038 RMK A01 T00481020  RH  062%=      5-min Rain = 0
KCH1 121309Z 04005KT 05/M02 A3038 RMK A01 T00481020  RH  062%=      5-min Rain = 0
KCH1 121310Z 03005KT 05/M02 A3038 RMK A01 T00481020  RH  062%=      5-min Rain = 0
KCH1 121311Z 03005KT 05/M02 A3038 RMK A01 T00471020  RH  062%=      5-min Rain = 0
KCH1 121312Z 03005KT 05/M02 A3038 RMK A01 T00471020  RH  062%=      5-min Rain = 0
KCH1 121313Z 02007KT 05/M02 A3038 RMK A01 T00471020  RH  062%=      5-min Rain = 0
KCH1 121314Z 03004KT 05/M02 A3038 RMK A01 T00471020  RH  061%=      5-min Rain = 0
KCH1 121315Z 05006KT 05/M02 A3038 RMK A01 T00471020  RH  062%=      5-min Rain = 0
KCH1 121316Z 03005KT 05/M02 A3038 RMK A01 T00481019  RH  062%=      5-min Rain = 0
KCH1 121317Z 03003KT 05/M02 A3038 RMK A01 T00471019  RH  062%=      5-min Rain = 0
KCH1 121318Z 02006KT 05/M02 A3038 RMK A01 T00481018  RH  062%=      5-min Rain = 0
KCH1 121319Z 03005KT 05/M02 A3038 RMK A01 T00471019  RH  062%=      5-min Rain = 0
KCH1 121320Z 03005KT 05/M02 A3038 RMK A01 T00471020  RH  062%=      5-min Rain = 0
KCH1 121321Z 04006KT 05/M02 A3038 RMK A01 T00481020  RH  062%=      5-min Rain = 0
KCH1 121322Z 03006KT 05/M02 A3038 RMK A01 T00471020  RH  062%=      5-min Rain = 0
KCH1 121323Z 04007KT 05/M02 A3038 RMK A01 T00471020  RH  062%=      5-min Rain = 0
KCH1 121324Z 04006KT 05/M02 A3038 RMK A01 T00481020  RH  062%=      5-min Rain = 0
KCH1 121325Z 03006KT 05/M02 A3038 RMK A01 T00481019  RH  062%=      5-min Rain = 0
KCH1 121326Z 04008KT 05/M02 A3038 RMK A01 T00481019  RH  062%=      5-min Rain = 0
KCH1 121327Z 03009KT 05/M02 A3038 RMK A01 T00481020  RH  062%=      5-min Rain = 0
KCH1 121328Z 03007KT 05/M02 A3038 RMK A01 T00481020  RH  061%=      5-min Rain = 0
KCH1 121329Z 04006KT 05/M02 A3038 RMK A01 T00481020  RH  062%=      5-min Rain = 0
KCH1 121330Z 04008KT 05/M02 A3038 RMK A01 T00481020  RH  062%=      5-min Rain = 0
KCH1 121331Z 04009KT 05/M02 A3038 RMK A01 T00481020  RH  061%=      5-min Rain = 0
KCH1 121332Z 04008KT 05/M02 A3038 RMK A01 T00481020  RH  061%=      5-min Rain = 0
KCH1 121333Z 04010KT 05/M02 A3038 RMK A01 T00491019  RH  062%=      5-min Rain = 0
KCH1 121334Z 04008KT 05/M02 A3038 RMK A01 T00481020  RH  061%=      5-min Rain = 0
KCH1 121335Z 03007KT 05/M02 A3038 RMK A01 T00491020  RH  061%=      5-min Rain = 0
KCH1 121336Z 05006KT 05/M02 A3038 RMK A01 T00481020  RH  061%=      5-min Rain = 0
KCH1 121337Z 05008KT 05/M02 A3038 RMK A01 T00491019  RH  061%=      5-min Rain = 0
KCH1 121338Z 05008KT 05/M02 A3038 RMK A01 T00481020  RH  061%=      5-min Rain = 0
KCH1 121339Z 04008KT 05/M02 A3038 RMK A01 T00481020  RH  061%=      5-min Rain = 0
KCH1 121340Z 05008KT 05/M02 A3038 RMK A01 T00491020  RH  061%=      5-min Rain = 0
KCH1 121341Z 05009KT 05/M02 A3038 RMK A01 T00481020  RH  061%=      5-min Rain = 0
KCH1 121342Z 05008KT 05/M02 A3038 RMK A01 T00481019  RH  061%=      5-min Rain = 0
KCH1 121343Z 05008KT 05/M02 A3038 RMK A01 T00481019  RH  061%=      5-min Rain = 0
KCH1 121344Z 05009KT 05/M02 A3038 RMK A01 T00491019  RH  061%=      5-min Rain = 0
KCH1 121345Z 05008KT 05/M02 A3038 RMK A01 T00491019  RH  061%=      5-min Rain = 0
KCH1 121346Z 06008KT 05/M02 A3038 RMK A01 T00491019  RH  061%=      5-min Rain = 0
KCH1 121347Z 04008KT 05/M02 A3038 RMK A01 T00491019  RH  062%=      5-min Rain = 0
KCH1 121348Z 04006KT 05/M02 A3038 RMK A01 T00491019  RH  061%=      5-min Rain = 0
KCH1 121349Z 05007KT 05/M02 A3038 RMK A01 T00491019  RH  061%=      5-min Rain = 0
KCH1 121350Z 06009KT 05/M02 A3038 RMK A01 T00491019  RH  061%=      5-min Rain = 0
KCH1 121351Z 05008KT 05/M02 A3038 RMK A01 T00501019  RH  061%=      5-min Rain = 0
KCH1 121352Z 05007KT 05/M02 A3038 RMK A01 T00491019  RH  061%=      5-min Rain = 0
KCH1 121353Z 04009KT 05/M02 A3038 RMK A01 T00501018  RH  061%=      5-min Rain = 0
KCH1 121354Z 05009KT 05/M02 A3038 RMK A01 T00501019  RH  061%=      5-min Rain = 0
KCH1 121355Z 05007KT 05/M02 A3038 RMK A01 T00501019  RH  061%=      5-min Rain = 0
KCH1 121356Z 05007KT 05/M02 A3039 RMK A01 T00501019  RH  061%=      5-min Rain = 0
KCH1 121357Z 04006KT 05/M02 A3039 RMK A01 T00501019  RH  061%=      5-min Rain = 0
KCH1 121358Z 05005KT 05/M02 A3039 RMK A01 T00501018  RH  061%=      5-min Rain = 0
KCH1 121359Z 03005KT 05/M02 A3039 RMK A01 T00501018  RH  061%=      5-min Rain = 0
KCH1 121400Z 03005KT 05/M02 A3039 RMK A01 T00501019  RH  061%=      5-min Rain = 0
KCH1 121401Z 03006KT 05/M02 A3039 RMK A01 T00501020  RH  061%=      5-min Rain = 0
KCH1 121402Z 03009KT 05/M02 A3039 RMK A01 T00511019  RH  061%=      5-min Rain = 0
KCH1 121403Z 04006KT 05/M02 A3039 RMK A01 T00511020  RH  060%=      5-min Rain = 0
KCH1 121404Z 04007KT 05/M02 A3039 RMK A01 T00511020  RH  060%=      5-min Rain = 0
KCH1 121405Z 04005KT 05/M02 A3039 RMK A01 T00511020  RH  060%=      5-min Rain = 0
KCH1 121406Z 05006KT 05/M02 A3039 RMK A01 T00511019  RH  061%=      5-min Rain = 0
KCH1 121407Z 05005KT 05/M02 A3039 RMK A01 T00511018  RH  061%=      5-min Rain = 0
KCH1 121408Z 04006KT 05/M02 A3039 RMK A01 T00521017  RH  061%=      5-min Rain = 0
KCH1 121409Z 03005KT 05/M02 A3039 RMK A01 T00531017  RH  061%=      5-min Rain = 0
KCH1 121410Z 05006KT 05/M02 A3039 RMK A01 T00531017  RH  060%=      5-min Rain = 0
KCH1 121411Z 05007KT 05/M02 A3039 RMK A01 T00541018  RH  060%=      5-min Rain = 0
KCH1 121412Z 05006KT 05/M02 A3039 RMK A01 T00531019  RH  060%=      5-min Rain = 0
KCH1 121413Z 04006KT 05/M02 A3039 RMK A01 T00541018  RH  060%=      5-min Rain = 0
KCH1 121414Z 05006KT 06/M02 A3039 RMK A01 T00551017  RH  060%=      5-min Rain = 0
KCH1 121415Z 05006KT 06/M02 A3039 RMK A01 T00551018  RH  059%=      5-min Rain = 0
KCH1 121416Z 06005KT 06/M02 A3039 RMK A01 T00561017  RH  059%=      5-min Rain = 0
KCH1 121417Z 05007KT 06/M02 A3039 RMK A01 T00551018  RH  059%=      5-min Rain = 0
KCH1 121418Z 06008KT 06/M02 A3039 RMK A01 T00551018  RH  059%=      5-min Rain = 0
KCH1 121419Z 06008KT 06/M02 A3039 RMK A01 T00561018  RH  059%=      5-min Rain = 0
KCH1 121420Z 06010KT 06/M02 A3039 RMK A01 T00561019  RH  059%=      5-min Rain = 0
KCH1 121421Z 06009KT 06/M02 A3039 RMK A01 T00551018  RH  059%=      5-min Rain = 0
KCH1 121422Z 05007KT 06/M02 A3039 RMK A01 T00551018  RH  059%=      5-min Rain = 0
KCH1 121423Z 07010KT 06/M02 A3039 RMK A01 T00561018  RH  059%=      5-min Rain = 0
KCH1 121424Z 06009KT 06/M02 A3039 RMK A01 T00561018  RH  059%=      5-min Rain = 0
KCH1 121425Z 06008KT 06/M02 A3039 RMK A01 T00561018  RH  059%=      5-min Rain = 0
KCH1 121426Z 05007KT 06/M02 A3039 RMK A01 T00561019  RH  059%=      5-min Rain = 0
KCH1 121427Z 05009KT 06/M02 A3039 RMK A01 T00561018  RH  059%=      5-min Rain = 0
KCH1 121428Z 05010KT 06/M02 A3039 RMK A01 T00561018  RH  059%=      5-min Rain = 0
KCH1 121429Z 05009KT 06/M02 A3039 RMK A01 T00571019  RH  058%=      5-min Rain = 0
KCH1 121430Z 05008KT 06/M02 A3039 RMK A01 T00571018  RH  059%=      5-min Rain = 0
KCH1 121431Z 05006KT 06/M02 A3039 RMK A01 T00571017  RH  059%=      5-min Rain = 0
KCH1 121432Z 06005KT 06/M02 A3039 RMK A01 T00571016  RH  059%=      5-min Rain = 0
KCH1 121433Z 07007KT 06/M02 A3039 RMK A01 T00581016  RH  059%=      5-min Rain = 0
KCH1 121434Z 07008KT 06/M02 A3039 RMK A01 T00581018  RH  058%=      5-min Rain = 0
KCH1 121435Z 06009KT 06/M02 A3039 RMK A01 T00571019  RH  058%=      5-min Rain = 0
KCH1 121436Z 06007KT 06/M02 A3039 RMK A01 T00561019  RH  058%=      5-min Rain = 0
KCH1 121437Z 06007KT 06/M02 A3039 RMK A01 T00561018  RH  059%=      5-min Rain = 0
KCH1 121438Z 05009KT 06/M02 A3039 RMK A01 T00571018  RH  059%=      5-min Rain = 0
KCH1 121439Z 05008KT 06/M02 A304 RMK A01 T00571018  RH  059%=      5-min Rain = 0
KCH1 121440Z 07007KT 06/M02 A3039 RMK A01 T00561018  RH  059%=      5-min Rain = 0
KCH1 121441Z 07007KT 06/M02 A3039 RMK A01 T00571018  RH  059%=      5-min Rain = 0
KCH1 121442Z 07008KT 06/M02 A3039 RMK A01 T00571018  RH  059%=      5-min Rain = 0
KCH1 121443Z 06009KT 06/M02 A3039 RMK A01 T00571018  RH  058%=      5-min Rain = 0
KCH1 121444Z 07009KT 06/M02 A3039 RMK A01 T00571018  RH  058%=      5-min Rain = 0
KCH1 121445Z 07008KT 06/M02 A3039 RMK A01 T00571019  RH  058%=      5-min Rain = 0
KCH1 121446Z 06009KT 06/M02 A3039 RMK A01 T00571018  RH  059%=      5-min Rain = 0
KCH1 121447Z 07008KT 06/M02 A3039 RMK A01 T00571018  RH  058%=      5-min Rain = 0
KCH1 121448Z 06007KT 06/M02 A3039 RMK A01 T00571018  RH  058%=      5-min Rain = 0
KCH1 121449Z 06007KT 06/M02 A3039 RMK A01 T00571018  RH  059%=      5-min Rain = 0
KCH1 121450Z 06007KT 06/M02 A3039 RMK A01 T00571018  RH  058%=      5-min Rain = 0
KCH1 121451Z 05008KT 06/M02 A3039 RMK A01 T00581017  RH  059%=      5-min Rain = 0
KCH1 121452Z 06007KT 06/M02 A304 RMK A01 T00581018  RH  058%=      5-min Rain = 0
KCH1 121453Z 06007KT 06/M02 A304 RMK A01 T00581018  RH  058%=      5-min Rain = 0
KCH1 121454Z 06007KT 06/M02 A304 RMK A01 T00581018  RH  058%=      5-min Rain = 0
KCH1 121455Z 05007KT 06/M02 A304 RMK A01 T00581018  RH  058%=      5-min Rain = 0
KCH1 121456Z 04007KT 06/M02 A304 RMK A01 T00591016  RH  058%=      5-min Rain = 0
KCH1 121457Z 05007KT 06/M02 A304 RMK A01 T00601016  RH  058%=      5-min Rain = 0
KCH1 121458Z 05006KT 06/M02 A304 RMK A01 T00611017  RH  057%=      5-min Rain = 0
KCH1 121459Z 05007KT 06/M02 A304 RMK A01 T00611017  RH  058%=      5-min Rain = 0
KCH1 121500Z 05005KT 06/M02 A304 RMK A01 T00611017  RH  057%=      5-min Rain = 0
KCH1 121501Z 06007KT 06/M02 A304 RMK A01 T00611016  RH  058%=      5-min Rain = 0
KCH1 121502Z 06007KT 06/M02 A3041 RMK A01 T00621017  RH  057%=      5-min Rain = 0
KCH1 121503Z 06007KT 06/M02 A3041 RMK A01 T00621017  RH  057%=      5-min Rain = 0
KCH1 121504Z 06006KT 06/M02 A3041 RMK A01 T00621017  RH  057%=      5-min Rain = 0
KCH1 121505Z 06006KT 06/M02 A3041 RMK A01 T00621017  RH  057%=      5-min Rain = 0
KCH1 121506Z 05005KT 06/M02 A3041 RMK A01 T00621017  RH  057%=      5-min Rain = 0
KCH1 121507Z 05007KT 06/M02 A3041 RMK A01 T00621016  RH  057%=      5-min Rain = 0
KCH1 121508Z 04008KT 06/M02 A3041 RMK A01 T00631016  RH  057%=      5-min Rain = 0
KCH1 121509Z 04007KT 06/M02 A3041 RMK A01 T00641016  RH  057%=      5-min Rain = 0
KCH1 121510Z 05006KT 07/M02 A3041 RMK A01 T00651016  RH  056%=      5-min Rain = 0
KCH1 121511Z 05005KT 07/M02 A3041 RMK A01 T00651016  RH  056%=      5-min Rain = 0
KCH1 121512Z 04006KT 07/M02 A3041 RMK A01 T00651017  RH  056%=      5-min Rain = 0
KCH1 121513Z 04007KT 07/M02 A3041 RMK A01 T00651017  RH  056%=      5-min Rain = 0
KCH1 121514Z 05007KT 07/M02 A3041 RMK A01 T00651017  RH  056%=      5-min Rain = 0
KCH1 121515Z 05006KT 06/M02 A3041 RMK A01 T00641017  RH  056%=      5-min Rain = 0
KCH1 121516Z 06006KT 07/M02 A3041 RMK A01 T00651016  RH  056%=      5-min Rain = 0
KCH1 121517Z 06007KT 07/M02 A3041 RMK A01 T00661017  RH  055%=      5-min Rain = 0
KCH1 121518Z 05008KT 07/M02 A3041 RMK A01 T00651017  RH  056%=      5-min Rain = 0
KCH1 121519Z 05007KT 07/M02 A3041 RMK A01 T00661017  RH  056%=      5-min Rain = 0
KCH1 121520Z 05006KT 07/M02 A3041 RMK A01 T00671017  RH  055%=      5-min Rain = 0
KCH1 121521Z 05005KT 07/M02 A3041 RMK A01 T00671017  RH  055%=      5-min Rain = 0
KCH1 121522Z 05004KT 07/M02 A3041 RMK A01 T00661017  RH  055%=      5-min Rain = 0
KCH1 121523Z 04006KT 07/M02 A3041 RMK A01 T00671016  RH  055%=      5-min Rain = 0
KCH1 121524Z 04007KT 07/M02 A3041 RMK A01 T00681016  RH  055%=      5-min Rain = 0
KCH1 121525Z 05006KT 07/M02 A3041 RMK A01 T00691017  RH  055%=      5-min Rain = 0
KCH1 121526Z 04007KT 07/M02 A3041 RMK A01 T00691017  RH  054%=      5-min Rain = 0
KCH1 121527Z 04006KT 07/M02 A3041 RMK A01 T00691016  RH  055%=      5-min Rain = 0
KCH1 121528Z 05007KT 07/M02 A3041 RMK A01 T00701015  RH  055%=      5-min Rain = 0
KCH1 121529Z 06008KT 07/M02 A3041 RMK A01 T00711016  RH  054%=      5-min Rain = 0
KCH1 121530Z 06007KT 07/M02 A3041 RMK A01 T00701017  RH  054%=      5-min Rain = 0
KCH1 121531Z 06006KT 07/M02 A3041 RMK A01 T00691018  RH  054%=      5-min Rain = 0
KCH1 121532Z 05008KT 07/M02 A3041 RMK A01 T00681017  RH  055%=      5-min Rain = 0
KCH1 121533Z 05007KT 07/M02 A3041 RMK A01 T00691015  RH  055%=      5-min Rain = 0
KCH1 121534Z 04008KT 07/M02 A3041 RMK A01 T00711015  RH  054%=      5-min Rain = 0
KCH1 121535Z 05006KT 07/M02 A3042 RMK A01 T00721015  RH  054%=      5-min Rain = 0
KCH1 121536Z 06006KT 07/M02 A3042 RMK A01 T00731015  RH  054%=      5-min Rain = 0
KCH1 121537Z 05005KT 07/M02 A3042 RMK A01 T00731016  RH  053%=      5-min Rain = 0
KCH1 121538Z 05005KT 07/M02 A3042 RMK A01 T00731015  RH  054%=      5-min Rain = 0
KCH1 121539Z 06007KT 08/M01 A3042 RMK A01 T00751013  RH  054%=      5-min Rain = 0
KCH1 121540Z 06006KT 08/M01 A3042 RMK A01 T00761014  RH  053%=      5-min Rain = 0
KCH1 121541Z 06005KT 08/M02 A3042 RMK A01 T00751016  RH  052%=      5-min Rain = 0
KCH1 121542Z 05003KT 07/M02 A3042 RMK A01 T00721018  RH  053%=      5-min Rain = 0
KCH1 121543Z 02004KT 07/M02 A3042 RMK A01 T00711017  RH  054%=      5-min Rain = 0
KCH1 121544Z 03003KT 07/M02 A3042 RMK A01 T00721016  RH  054%=      5-min Rain = 0
KCH1 121545Z 07005KT 07/M02 A3042 RMK A01 T00721016  RH  054%=      5-min Rain = 0
KCH1 121546Z 06005KT 07/M01 A3042 RMK A01 T00741014  RH  054%=      5-min Rain = 0
KCH1 121547Z 06006KT 08/M01 A3042 RMK A01 T00771013  RH  053%=      5-min Rain = 0
KCH1 121548Z 06006KT 08/M02 A3042 RMK A01 T00771015  RH  052%=      5-min Rain = 0
KCH1 121549Z 04006KT 08/M02 A3042 RMK A01 T00771015  RH  052%=      5-min Rain = 0
KCH1 121550Z 04005KT 08/M02 A3042 RMK A01 T00761016  RH  052%=      5-min Rain = 0
KCH1 121551Z 04003KT 08/M02 A3042 RMK A01 T00761016  RH  052%=      5-min Rain = 0
KCH1 121552Z 03002KT 08/M02 A3042 RMK A01 T00751016  RH  053%=      5-min Rain = 0
KCH1 121553Z 05003KT 08/M02 A3042 RMK A01 T00761015  RH  053%=      5-min Rain = 0
KCH1 121554Z 07004KT 08/M01 A3042 RMK A01 T00771013  RH  053%=      5-min Rain = 0
KCH1 121555Z 03006KT 08/M01 A3042 RMK A01 T00801011  RH  052%=      5-min Rain = 0
KCH1 121556Z 02006KT 08/M01 A3042 RMK A01 T00811014  RH  051%=      5-min Rain = 0
KCH1 121557Z 02004KT 08/M01 A3042 RMK A01 T00821014  RH  051%=      5-min Rain = 0
KCH1 121558Z 03005KT 08/M01 A3042 RMK A01 T00831013  RH  051%=      5-min Rain = 0
KCH1 121559Z 06005KT 08/M02 A3042 RMK A01 T00831015  RH  050%=      5-min Rain = 0
KCH1 121600Z 05008KT 08/M01 A3042 RMK A01 T00831013  RH  051%=      5-min Rain = 0
KCH1 121601Z 04008KT 08/M02 A3042 RMK A01 T00841015  RH  050%=      5-min Rain = 0
KCH1 121602Z 05008KT 08/M02 A3042 RMK A01 T00831015  RH  050%=      5-min Rain = 0
KCH1 121603Z 04006KT 08/M02 A3042 RMK A01 T00831017  RH  049%=      5-min Rain = 0
KCH1 121604Z 05009KT 08/M02 A3042 RMK A01 T00831016  RH  050%=      5-min Rain = 0
KCH1 121605Z 05007KT 08/M02 A3042 RMK A01 T00831017  RH  050%=      5-min Rain = 0
KCH1 121606Z 04006KT 08/M02 A3042 RMK A01 T00811018  RH  050%=      5-min Rain = 0
KCH1 121607Z 05006KT 08/M02 A3042 RMK A01 T00801017  RH  050%=      5-min Rain = 0
KCH1 121608Z 07005KT 08/M02 A3042 RMK A01 T00811017  RH  050%=      5-min Rain = 0
KCH1 121609Z 05006KT 08/M02 A3042 RMK A01 T00801017  RH  050%=      5-min Rain = 0
KCH1 121610Z 04006KT 08/M02 A3042 RMK A01 T00801017  RH  050%=      5-min Rain = 0
KCH1 121611Z 03005KT 08/M02 A3042 RMK A01 T00811016  RH  050%=      5-min Rain = 0
KCH1 121612Z 02007KT 08/M01 A3042 RMK A01 T00841014  RH  050%=      5-min Rain = 0
KCH1 121613Z 00006KT 09/M02 A3042 RMK A01 T00851015  RH  049%=      5-min Rain = 0
KCH1 121614Z 04004KT 09/M01 A3042 RMK A01 T00861014  RH  049%=      5-min Rain = 0
KCH1 121615Z 03005KT 09/M01 A3042 RMK A01 T00881012  RH  049%=      5-min Rain = 0
KCH1 121616Z 02003KT 09/M01 A3042 RMK A01 T00911012  RH  048%=      5-min Rain = 0
KCH1 121617Z 04007KT 09/M01 A3042 RMK A01 T00921012  RH  048%=      5-min Rain = 0
KCH1 121618Z 03005KT 09/M01 A3042 RMK A01 T00921014  RH  047%=      5-min Rain = 0
KCH1 121619Z 04006KT 09/M02 A3042 RMK A01 T00921015  RH  047%=      5-min Rain = 0
KCH1 121620Z 05006KT 09/M02 A3042 RMK A01 T00921016  RH  047%=      5-min Rain = 0
KCH1 121621Z 04005KT 09/M02 A3042 RMK A01 T00901017  RH  047%=      5-min Rain = 0
KCH1 121622Z 04008KT 09/M02 A3042 RMK A01 T00881017  RH  048%=      5-min Rain = 0
KCH1 121623Z 03006KT 09/M01 A3042 RMK A01 T00901013  RH  048%=      5-min Rain = 0
KCH1 121624Z 04005KT 09/M01 A3042 RMK A01 T00931013  RH  047%=      5-min Rain = 0
KCH1 121625Z 03004KT 09/M02 A3041 RMK A01 T00931015  RH  047%=      5-min Rain = 0
KCH1 121626Z 06007KT 10/M01 A3041 RMK A01 T00951011  RH  047%=      5-min Rain = 0
KCH1 121627Z 06006KT 10/M01 A3042 RMK A01 T00971014  RH  046%=      5-min Rain = 0
KCH1 121628Z 05004KT 09/M02 A3042 RMK A01 T00941016  RH  046%=      5-min Rain = 0
KCH1 121629Z 04006KT 09/M01 A3042 RMK A01 T00931014  RH  047%=      5-min Rain = 0
KCH1 121630Z 02007KT 10/M01 A3042 RMK A01 T00951014  RH  047%=      5-min Rain = 0
KCH1 121631Z 01003KT 10/M01 A3042 RMK A01 T00961014  RH  046%=      5-min Rain = 0
KCH1 121632Z 04004KT 10/M02 A3042 RMK A01 T00961015  RH  046%=      5-min Rain = 0
KCH1 121633Z 05008KT 10/M01 A3042 RMK A01 T00961014  RH  046%=      5-min Rain = 0
KCH1 121634Z 02006KT 10/M02 A3042 RMK A01 T00961015  RH  046%=      5-min Rain = 0
KCH1 121635Z 02003KT 10/M01 A3042 RMK A01 T00951014  RH  046%=      5-min Rain = 0
KCH1 121636Z 01004KT 10/M02 A3042 RMK A01 T00951015  RH  046%=      5-min Rain = 0
KCH1 121637Z 03004KT 09/M02 A3042 RMK A01 T00941015  RH  046%=      5-min Rain = 0
KCH1 121638Z 07004KT 10/M01 A3042 RMK A01 T00951014  RH  047%=      5-min Rain = 0
KCH1 121639Z 06005KT 10/M01 A3042 RMK A01 T00951014  RH  046%=      5-min Rain = 0
KCH1 121640Z 07005KT 10/M02 A3041 RMK A01 T00951015  RH  046%=      5-min Rain = 0
KCH1 121641Z 05006KT 09/M02 A3041 RMK A01 T00941015  RH  046%=      5-min Rain = 0
KCH1 121642Z 04006KT 10/M01 A3041 RMK A01 T00951014  RH  047%=      5-min Rain = 0
KCH1 121643Z 03004KT 10/M01 A3041 RMK A01 T00961014  RH  046%=      5-min Rain = 0
KCH1 121644Z 05003KT 10/M02 A3041 RMK A01 T00961015  RH  046%=      5-min Rain = 0
KCH1 121645Z 05002KT 10/M01 A3041 RMK A01 T00961013  RH  047%=      5-min Rain = 0
KCH1 121646Z 03005KT 10/M01 A3041 RMK A01 T00981012  RH  046%=      5-min Rain = 0
KCH1 121647Z 02006KT 10/M01 A3041 RMK A01 T01001010  RH  046%=      5-min Rain = 0
KCH1 121648Z 02006KT 10/M01 A3041 RMK A01 T01031012  RH  045%=      5-min Rain = 0
KCH1 121649Z 03005KT 10/M01 A3041 RMK A01 T01031012  RH  045%=      5-min Rain = 0
KCH1 121650Z 02003KT 10/M01 A3041 RMK A01 T01031013  RH  044%=      5-min Rain = 0
KCH1 121651Z 35005KT 10/M01 A3041 RMK A01 T01041010  RH  045%=      5-min Rain = 0
KCH1 121652Z 35006KT 11/M01 A304 RMK A01 T01051013  RH  044%=      5-min Rain = 0
KCH1 121653Z 02005KT 10/M01 A304 RMK A01 T01041013  RH  044%=      5-min Rain = 0
KCH1 121654Z 04007KT 11/M01 A304 RMK A01 T01051011  RH  044%=      5-min Rain = 0
KCH1 121655Z 04008KT 11/M01 A304 RMK A01 T01081009  RH  044%=      5-min Rain = 0
KCH1 121656Z 05008KT 11/M01 A304 RMK A01 T01081011  RH  043%=      5-min Rain = 0
KCH1 121657Z 06005KT 11/M01 A304 RMK A01 T01061014  RH  043%=      5-min Rain = 0
KCH1 121658Z 08004KT 10/M01 A304 RMK A01 T01041014  RH  044%=      5-min Rain = 0
KCH1 121659Z 06005KT 10/M01 A304 RMK A01 T01041011  RH  045%=      5-min Rain = 0
KCH1 121700Z 05005KT 11/M01 A304 RMK A01 T01071009  RH  044%=      5-min Rain = 0
KCH1 121701Z 04009KT 11/M01 A304 RMK A01 T01091010  RH  044%=      5-min Rain = 0
KCH1 121702Z 04011KT 11/M01 A304 RMK A01 T01091012  RH  043%=      5-min Rain = 0
KCH1 121703Z 03007KT 11/M01 A304 RMK A01 T01061013  RH  043%=      5-min Rain = 0
KCH1 121704Z 03006KT 11/M01 A304 RMK A01 T01051012  RH  044%=      5-min Rain = 0
KCH1 121705Z 04004KT 11/M01 A304 RMK A01 T01051013  RH  044%=      5-min Rain = 0
KCH1 121706Z 03005KT 11/M01 A304 RMK A01 T01051013  RH  044%=      5-min Rain = 0
KCH1 121707Z 05011KT 11/M01 A304 RMK A01 T01071011  RH  044%=      5-min Rain = 0
KCH1 121708Z 05012KT 11/M01 A304 RMK A01 T01091013  RH  043%=      5-min Rain = 0
KCH1 121709Z 04010KT 11/M02 A304 RMK A01 T01081015  RH  043%=      5-min Rain = 0
KCH1 121710Z 05008KT 11/M02 A304 RMK A01 T01081015  RH  042%=      5-min Rain = 0
KCH1 121711Z 05007KT 11/M02 A304 RMK A01 T01071016  RH  042%=      5-min Rain = 0
KCH1 121712Z 06006KT 11/M02 A304 RMK A01 T01061017  RH  042%=      5-min Rain = 0
KCH1 121713Z 03003KT 11/M02 A304 RMK A01 T01061017  RH  042%=      5-min Rain = 0
KCH1 121714Z 02006KT 11/M02 A304 RMK A01 T01051017  RH  043%=      5-min Rain = 0
KCH1 121715Z 03006KT 11/M01 A304 RMK A01 T01081012  RH  043%=      5-min Rain = 0
KCH1 121716Z 04007KT 11/M01 A304 RMK A01 T01141008  RH  043%=      5-min Rain = 0
KCH1 121717Z 03006KT 12/M01 A304 RMK A01 T01171011  RH  041%=      5-min Rain = 0
KCH1 121718Z 06008G14KT 12/M01 A304 RMK A01 T01161013  RH  041%=      5-min Rain = 0
KCH1 121719Z 07007KT 11/M02 A304 RMK A01 T01121017  RH  041%=      5-min Rain = 0
KCH1 121720Z 06006KT 11/M02 A304 RMK A01 T01091016  RH  042%=      5-min Rain = 0
KCH1 121721Z 05007KT 11/M02 A304 RMK A01 T01081015  RH  042%=      5-min Rain = 0
KCH1 121722Z 03006KT 11/M01 A304 RMK A01 T01091014  RH  043%=      5-min Rain = 0
KCH1 121723Z 01005KT 11/M01 A304 RMK A01 T01101013  RH  042%=      5-min Rain = 0
KCH1 121724Z 02008KT 11/M01 A304 RMK A01 T01111013  RH  042%=      5-min Rain = 0
KCH1 121725Z 02007KT 11/M01 A304 RMK A01 T01121010  RH  043%=      5-min Rain = 0
KCH1 121726Z 02006KT 12/M01 A304 RMK A01 T01171008  RH  042%=      5-min Rain = 0
KCH1 121727Z 02007KT 12/M01 A3039 RMK A01 T01191010  RH  041%=      5-min Rain = 0
KCH1 121728Z 03008KT 12/M01 A3039 RMK A01 T01191013  RH  040%=      5-min Rain = 0
KCH1 121729Z 04010KT 12/M01 A3039 RMK A01 T01171014  RH  040%=      5-min Rain = 0
KCH1 121730Z 03009KT 12/M01 A3039 RMK A01 T01151014  RH  041%=      5-min Rain = 0
KCH1 121731Z 02009KT 12/M01 A3039 RMK A01 T01151013  RH  041%=      5-min Rain = 0
KCH1 121732Z 04010KT 12/M01 A3039 RMK A01 T01161014  RH  041%=      5-min Rain = 0
KCH1 121733Z 06012KT 12/M01 A3039 RMK A01 T01171012  RH  041%=      5-min Rain = 0
KCH1 121734Z 07007KT 11/M02 A3039 RMK A01 T01121019  RH  040%=      5-min Rain = 0
KCH1 121735Z 04007KT 11/M01 A3039 RMK A01 T01091012  RH  043%=      5-min Rain = 0
KCH1 121736Z 06006KT 11/M01 A3039 RMK A01 T01131013  RH  042%=      5-min Rain = 0
KCH1 121737Z 07006KT 11/M02 A3039 RMK A01 T01121016  RH  041%=      5-min Rain = 0
KCH1 121738Z 04004KT 11/M01 A3039 RMK A01 T01121013  RH  042%=      5-min Rain = 0
KCH1 121739Z 05006G11KT 11/M01 A3039 RMK A01 T01141013  RH  041%=      5-min Rain = 0
KCH1 121740Z 06012KT 12/M01 A3039 RMK A01 T01161013  RH  041%=      5-min Rain = 0
KCH1 121741Z 04008KT 12/M01 A3039 RMK A01 T01161012  RH  041%=      5-min Rain = 0
KCH1 121742Z 05007KT 12/M01 A3039 RMK A01 T01181013  RH  040%=      5-min Rain = 0
KCH1 121743Z 07005KT 12/M02 A3039 RMK A01 T01161015  RH  040%=      5-min Rain = 0
KCH1 121744Z 05006KT 11/M02 A3038 RMK A01 T01141015  RH  041%=      5-min Rain = 0
KCH1 121745Z 04008KT 11/M01 A3038 RMK A01 T01131014  RH  041%=      5-min Rain = 0
KCH1 121746Z 06009KT 12/M01 A3038 RMK A01 T01191011  RH  041%=      5-min Rain = 0
KCH1 121747Z 06006KT 12/M02 A3038 RMK A01 T01201015  RH  039%=      5-min Rain = 0
KCH1 121748Z 04010KT 12/M01 A3038 RMK A01 T01191014  RH  040%=      5-min Rain = 0
KCH1 121749Z 04007KT 12/M02 A3038 RMK A01 T01191015  RH  039%=      5-min Rain = 0
KCH1 121750Z 03005KT 12/M01 A3038 RMK A01 T01181014  RH  040%=      5-min Rain = 0
KCH1 121751Z 03005G10KT 12/M01 A3038 RMK A01 T01211010  RH  040%=      5-min Rain = 0
KCH1 121752Z 03007KT 13/M01 A3038 RMK A01 T01271008  RH  039%=      5-min Rain = 0
KCH1 121753Z 03007KT 13/M01 A3038 RMK A01 T01311011  RH  038%=      5-min Rain = 0
KCH1 121754Z 04008KT 13/M02 A3038 RMK A01 T01301015  RH  037%=      5-min Rain = 0
KCH1 121755Z 03006KT 13/M01 A3038 RMK A01 T01261014  RH  038%=      5-min Rain = 0
KCH1 121756Z 05008KT 13/M01 A3038 RMK A01 T01261014  RH  038%=      5-min Rain = 0
KCH1 121757Z 08008KT 12/M02 A3038 RMK A01 T01221017  RH  038%=      5-min Rain = 0
KCH1 121758Z 05007KT 12/M01 A3038 RMK A01 T01221014  RH  039%=      5-min Rain = 0
KCH1 121759Z 03007KT 12/M02 A3038 RMK A01 T01241016  RH  038%=      5-min Rain = 0
KCH1 121800Z 05007KT 12/M02 A3038 RMK A01 T01241017  RH  037%=      5-min Rain = 0
KCH1 121801Z 06006KT 12/M02 A3038 RMK A01 T01241016  RH  038%=      5-min Rain = 0
KCH1 121802Z 06003KT 12/M02 A3038 RMK A01 T01191019  RH  038%=      5-min Rain = 0
KCH1 121803Z 07007KT 12/M02 A3038 RMK A01 T01171018  RH  039%=      5-min Rain = 0
KCH1 121804Z 06008KT 12/M02 A3038 RMK A01 T01151018  RH  039%=      5-min Rain = 0
KCH1 121805Z 03006KT 12/M02 A3038 RMK A01 T01151017  RH  040%=      5-min Rain = 0
KCH1 121806Z 04005KT 12/M02 A3038 RMK A01 T01191015  RH  039%=      5-min Rain = 0
KCH1 121807Z 02007KT 12/M01 A3038 RMK A01 T01231014  RH  038%=      5-min Rain = 0
KCH1 121808Z 04008KT 13/M02 A3038 RMK A01 T01251016  RH  037%=      5-min Rain = 0
KCH1 121809Z 04010KT 13/M02 A3038 RMK A01 T01261015  RH  038%=      5-min Rain = 0
KCH1 121810Z 03009KT 13/M01 A3038 RMK A01 T01281012  RH  038%=      5-min Rain = 0
KCH1 121811Z 06011KT 13/M01 A3038 RMK A01 T01301013  RH  037%=      5-min Rain = 0
KCH1 121812Z 06008KT 13/M02 A3038 RMK A01 T01261019  RH  037%=      5-min Rain = 0
KCH1 121813Z 04004KT 12/M02 A3038 RMK A01 T01211020  RH  037%=      5-min Rain = 0
KCH1 121814Z 05003KT 12/M02 A3038 RMK A01 T01201019  RH  038%=      5-min Rain = 0
KCH1 121815Z 04005KT 12/M01 A3038 RMK A01 T01221014  RH  039%=      5-min Rain = 0
KCH1 121816Z 03002KT 13/M01 A3037 RMK A01 T01261014  RH  038%=      5-min Rain = 0
KCH1 121817Z 05005KT 13/M01 A3037 RMK A01 T01271014  RH  038%=      5-min Rain = 0
KCH1 121818Z 08008KT 13/M02 A3037 RMK A01 T01281017  RH  036%=      5-min Rain = 0
KCH1 121819Z 06006KT 13/M02 A3037 RMK A01 T01291022  RH  035%=      5-min Rain = 0
KCH1 121820Z 04006KT 13/M02 A3037 RMK A01 T01281022  RH  035%=      5-min Rain = 0
KCH1 121821Z 06005KT 12/M02 A3037 RMK A01 T01241022  RH  036%=      5-min Rain = 0
KCH1 121822Z 08006KT 12/M02 A3037 RMK A01 T01231019  RH  037%=      5-min Rain = 0
KCH1 121823Z 09006KT 12/M02 A3037 RMK A01 T01241020  RH  037%=      5-min Rain = 0
KCH1 121824Z 09009KT 13/M02 A3037 RMK A01 T01271021  RH  036%=      5-min Rain = 0
KCH1 121825Z 08006KT 13/M02 A3037 RMK A01 T01291021  RH  035%=      5-min Rain = 0
KCH1 121826Z 08007KT 13/M02 A3037 RMK A01 T01301019  RH  035%=      5-min Rain = 0
KCH1 121827Z 08005KT 13/M02 A3037 RMK A01 T01321017  RH  036%=      5-min Rain = 0
KCH1 121828Z 09003KT 13/M02 A3037 RMK A01 T01321020  RH  035%=      5-min Rain = 0
KCH1 121829Z 08004KT 13/M02 A3037 RMK A01 T01311019  RH  035%=      5-min Rain = 0
KCH1 121830Z 07004KT 13/M02 A3036 RMK A01 T01291019  RH  036%=      5-min Rain = 0
KCH1 121831Z 08005KT 13/M02 A3036 RMK A01 T01281017  RH  036%=      5-min Rain = 0
KCH1 121832Z 10005KT 13/M01 A3036 RMK A01 T01331013  RH  037%=      5-min Rain = 0
KCH1 121833Z 09008KT 14/M01 A3036 RMK A01 T01391011  RH  036%=      5-min Rain = 0
KCH1 121834Z 10004KT 14/M02 A3036 RMK A01 T01381020  RH  034%=      5-min Rain = 0
KCH1 121835Z 12005KT 13/M02 A3036 RMK A01 T01341016  RH  035%=      5-min Rain = 0
KCH1 121836Z 16004KT 13/M02 A3036 RMK A01 T01331017  RH  035%=      5-min Rain = 0
KCH1 121837Z 13003KT 13/M02 A3036 RMK A01 T01321018  RH  036%=      5-min Rain = 0
KCH1 121838Z 10004KT 13/M02 A3035 RMK A01 T01311018  RH  035%=      5-min Rain = 0
KCH1 121839Z 10006KT 13/M02 A3035 RMK A01 T01321015  RH  036%=      5-min Rain = 0
KCH1 121840Z 10007KT 13/M02 A3035 RMK A01 T01331023  RH  034%=      5-min Rain = 0
KCH1 121841Z 12006KT 13/M03 A3035 RMK A01 T01331028  RH  033%=      5-min Rain = 0
KCH1 121842Z 07007KT 13/M02 A3035 RMK A01 T01341024  RH  033%=      5-min Rain = 0
KCH1 121843Z 06007KT 14/M03 A3035 RMK A01 T01361032  RH  031%=      5-min Rain = 0
KCH1 121844Z 07008KT 14/M04 A3035 RMK A01 T01351037  RH  030%=      5-min Rain = 0
KCH1 121845Z 07007KT 13/M03 A3035 RMK A01 T01341026  RH  033%=      5-min Rain = 0
KCH1 121846Z 07004KT 13/M03 A3035 RMK A01 T01341026  RH  033%=      5-min Rain = 0
KCH1 121847Z 06002KT 13/M03 A3035 RMK A01 T01321025  RH  034%=      5-min Rain = 0
KCH1 121848Z 03003KT 13/M02 A3035 RMK A01 T01321024  RH  034%=      5-min Rain = 0
KCH1 121849Z 04002KT 13/M03 A3035 RMK A01 T01341030  RH  032%=      5-min Rain = 0
KCH1 121850Z 04003KT 14/M03 A3035 RMK A01 T01351027  RH  033%=      5-min Rain = 0
KCH1 121851Z 04005KT 14/M02 A3035 RMK A01 T01371024  RH  033%=      5-min Rain = 0
KCH1 121852Z 05005KT 14/M03 A3035 RMK A01 T01391031  RH  031%=      5-min Rain = 0
KCH1 121853Z 05003KT 14/M03 A3035 RMK A01 T01361031  RH  031%=      5-min Rain = 0
KCH1 121854Z 06006KT 14/M03 A3034 RMK A01 T01381025  RH  032%=      5-min Rain = 0
KCH1 121855Z 06005KT 14/M03 A3034 RMK A01 T01391028  RH  031%=      5-min Rain = 0
KCH1 121856Z 11006KT 14/M02 A3034 RMK A01 T01391020  RH  033%=      5-min Rain = 0
KCH1 121857Z 11007KT 14/M02 A3034 RMK A01 T01401020  RH  033%=      5-min Rain = 0
KCH1 121858Z 08007KT 14/M02 A3034 RMK A01 T01401022  RH  033%=      5-min Rain = 0
KCH1 121859Z 08003KT 14/M02 A3034 RMK A01 T01401023  RH  032%=      5-min Rain = 0
KCH1 121900Z 13006KT 14/M02 A3034 RMK A01 T01441022  RH  032%=      5-min Rain = 0
KCH1 121901Z 11006KT 14/M03 A3034 RMK A01 T01431025  RH  031%=      5-min Rain = 0
KCH1 121902Z 09006KT 15/M02 A3034 RMK A01 T01451024  RH  031%=      5-min Rain = 0
KCH1 121903Z 08008KT 15/M03 A3033 RMK A01 T01471025  RH  030%=      5-min Rain = 0
KCH1 121904Z 09005KT 15/M03 A3033 RMK A01 T01481026  RH  030%=      5-min Rain = 0
KCH1 121905Z 12005KT 15/M03 A3033 RMK A01 T01491027  RH  030%=      5-min Rain = 0
KCH1 121906Z 15005KT 15/M03 A3033 RMK A01 T01471028  RH  030%=      5-min Rain = 0
KCH1 121907Z 16004KT 15/M03 A3033 RMK A01 T01461027  RH  030%=      5-min Rain = 0
KCH1 121908Z 09003KT 15/M02 A3033 RMK A01 T01461024  RH  031%=      5-min Rain = 0
KCH1 121909Z 07003KT 15/M03 A3033 RMK A01 T01481026  RH  030%=      5-min Rain = 0
KCH1 121910Z 06009KT 15/M03 A3033 RMK A01 T01491027  RH  030%=      5-min Rain = 0
KCH1 121911Z 03006G11KT 15/M03 A3033 RMK A01 T01511030  RH  029%=      5-min Rain = 0
KCH1 121912Z 06005KT 15/M03 A3033 RMK A01 T01491025  RH  030%=      5-min Rain = 0
KCH1 121913Z 04005KT 15/M02 A3033 RMK A01 T01541023  RH  030%=      5-min Rain = 0
KCH1 121914Z 06003KT 15/M03 A3033 RMK A01 T01541027  RH  029%=      5-min Rain = 0
KCH1 121915Z 08008KT 15/M03 A3033 RMK A01 T01511034  RH  028%=      5-min Rain = 0
KCH1 121916Z 09007KT 15/M03 A3033 RMK A01 T01461034  RH  029%=      5-min Rain = 0
KCH1 121917Z 09007KT 15/M03 A3033 RMK A01 T01451031  RH  029%=      5-min Rain = 0
KCH1 121918Z 09008KT 15/M03 A3033 RMK A01 T01461031  RH  029%=      5-min Rain = 0
KCH1 121919Z 09007KT 15/M03 A3032 RMK A01 T01461029  RH  030%=      5-min Rain = 0
KCH1 121920Z 12007KT 15/M03 A3032 RMK A01 T01471029  RH  030%=      5-min Rain = 0
KCH1 121921Z 12005KT 15/M03 A3032 RMK A01 T01481028  RH  029%=      5-min Rain = 0
KCH1 121922Z 15002KT 15/M03 A3032 RMK A01 T01471029  RH  029%=      5-min Rain = 0
KCH1 121923Z 19002KT 15/M03 A3032 RMK A01 T01461025  RH  031%=      5-min Rain = 0
KCH1 121924Z 18002KT 15/M03 A3032 RMK A01 T01471028  RH  030%=      5-min Rain = 0
KCH1 121925Z 16004KT 15/M03 A3032 RMK A01 T01471028  RH  030%=      5-min Rain = 0
KCH1 121926Z 15004KT 15/M03 A3032 RMK A01 T01511026  RH  030%=      5-min Rain = 0
KCH1 121927Z 08004KT 15/M03 A3032 RMK A01 T01511028  RH  029%=      5-min Rain = 0
KCH1 121928Z 05003KT 15/M03 A3032 RMK A01 T01491030  RH  029%=      5-min Rain = 0
KCH1 121929Z 02004KT 15/M03 A3032 RMK A01 T01461028  RH  030%=      5-min Rain = 0
KCH1 121930Z 02004KT 15/M03 A3032 RMK A01 T01461029  RH  030%=      5-min Rain = 0
KCH1 121931Z 08007KT 15/M03 A3032 RMK A01 T01471029  RH  030%=      5-min Rain = 0
KCH1 121932Z 08006KT 15/M03 A3032 RMK A01 T01471034  RH  028%=      5-min Rain = 0
KCH1 121933Z 05004KT 15/M04 A3032 RMK A01 T01471035  RH  028%=      5-min Rain = 0
KCH1 121934Z 02003KT 15/M03 A3032 RMK A01 T01461031  RH  029%=      5-min Rain = 0
KCH1 121935Z 14005KT 15/M03 A3032 RMK A01 T01481028  RH  030%=      5-min Rain = 0
KCH1 121936Z 15004KT 15/M03 A3031 RMK A01 T01491029  RH  029%=      5-min Rain = 0
KCH1 121937Z 13003KT 15/M03 A3031 RMK A01 T01491031  RH  029%=      5-min Rain = 0
KCH1 121938Z 03002KT 15/M03 A3031 RMK A01 T01481030  RH  029%=      5-min Rain = 0
KCH1 121939Z 04000KT 15/M03 A3031 RMK A01 T01471031  RH  029%=      5-min Rain = 0
KCH1 121940Z 22001KT 15/M03 A3031 RMK A01 T01471033  RH  029%=      5-min Rain = 0
KCH1 121941Z 14004G9KT 15/M03 A3031 RMK A01 T01451031  RH  029%=      5-min Rain = 0
KCH1 121942Z 14007KT 15/M03 A3031 RMK A01 T01481027  RH  030%=      5-min Rain = 0
KCH1 121943Z 12005KT 15/M03 A3031 RMK A01 T01501029  RH  029%=      5-min Rain = 0
KCH1 121944Z 07005KT 15/M02 A3031 RMK A01 T01521024  RH  030%=      5-min Rain = 0
KCH1 121945Z 07005KT 16/M03 A3031 RMK A01 T01551027  RH  029%=      5-min Rain = 0
KCH1 121946Z 05001KT 16/M02 A3031 RMK A01 T01581022  RH  029%=      5-min Rain = 0
KCH1 121947Z 07002KT 16/M03 A3031 RMK A01 T01601026  RH  028%=      5-min Rain = 0
KCH1 121948Z 06005KT 16/M03 A3031 RMK A01 T01591025  RH  028%=      5-min Rain = 0
KCH1 121949Z 10011KT 16/M03 A3031 RMK A01 T01581027  RH  028%=      5-min Rain = 0
KCH1 121950Z 10007KT 16/M03 A3031 RMK A01 T01561031  RH  028%=      5-min Rain = 0
KCH1 121951Z 12007KT 15/M03 A3031 RMK A01 T01541029  RH  028%=      5-min Rain = 0
KCH1 121952Z 12010KT 16/M03 A3031 RMK A01 T01561026  RH  029%=      5-min Rain = 0
KCH1 121953Z 13006G11KT 16/M03 A303 RMK A01 T01561030  RH  028%=      5-min Rain = 0
KCH1 121954Z 12008KT 15/M03 A303 RMK A01 T01541030  RH  028%=      5-min Rain = 0
KCH1 121955Z 11008KT 15/M03 A303 RMK A01 T01531030  RH  028%=      5-min Rain = 0
KCH1 121956Z 09006KT 15/M03 A303 RMK A01 T01541028  RH  028%=      5-min Rain = 0
KCH1 121957Z 07007KT 16/M03 A303 RMK A01 T01571028  RH  028%=      5-min Rain = 0
KCH1 121958Z 07007KT 16/M03 A303 RMK A01 T01581030  RH  027%=      5-min Rain = 0
KCH1 121959Z 06009KT 16/M03 A303 RMK A01 T01591028  RH  027%=      5-min Rain = 0
KCH1 122000Z 05007KT 16/M03 A303 RMK A01 T01601028  RH  027%=      5-min Rain = 0
KCH1 122001Z 07006KT 16/M03 A303 RMK A01 T01591030  RH  027%=      5-min Rain = 0
KCH1 122002Z 07005KT 16/M03 A303 RMK A01 T01571030  RH  028%=      5-min Rain = 0
KCH1 122003Z 03006KT 16/M03 A303 RMK A01 T01561026  RH  029%=      5-min Rain = 0
KCH1 122004Z 36003KT 16/M03 A303 RMK A01 T01581027  RH  028%=      5-min Rain = 0
KCH1 122005Z 33003KT 16/M03 A3029 RMK A01 T01571032  RH  027%=      5-min Rain = 0
KCH1 122006Z 35003KT 15/M03 A3029 RMK A01 T01541033  RH  027%=      5-min Rain = 0
KCH1 122007Z 09004G9KT 15/M03 A3029 RMK A01 T01531027  RH  029%=      5-min Rain = 0
KCH1 122008Z 08006KT 16/M02 A3029 RMK A01 T01571024  RH  029%=      5-min Rain = 0
KCH1 122009Z 06006KT 16/M03 A3029 RMK A01 T01591028  RH  027%=      5-min Rain = 0
KCH1 122010Z 07006KT 16/M03 A3029 RMK A01 T01601026  RH  028%=      5-min Rain = 0
KCH1 122011Z 05005KT 16/M03 A3029 RMK A01 T01631030  RH  026%=      5-min Rain = 0
KCH1 122012Z 01002KT 16/M03 A3029 RMK A01 T01591033  RH  027%=      5-min Rain = 0
KCH1 122013Z 34002KT 16/M03 A3029 RMK A01 T01581033  RH  027%=      5-min Rain = 0
KCH1 122014Z 35002KT 16/M04 A3029 RMK A01 T01561036  RH  026%=      5-min Rain = 0
KCH1 122015Z 34001KT 15/M04 A3029 RMK A01 T01541037  RH  027%=      5-min Rain = 0
KCH1 122016Z 03003KT 15/M03 A3029 RMK A01 T01541032  RH  028%=      5-min Rain = 0
KCH1 122017Z 06006G12KT 16/M03 A3029 RMK A01 T01551027  RH  028%=      5-min Rain = 0
KCH1 122018Z 06011G17KT 16/M03 A3029 RMK A01 T01571027  RH  028%=      5-min Rain = 0
KCH1 122019Z 07011KT 16/M03 A3029 RMK A01 T01561025  RH  029%=      5-min Rain = 0
KCH1 122020Z 07009G14KT 16/M03 A3029 RMK A01 T01561027  RH  028%=      5-min Rain = 0
KCH1 122021Z 05010KT 16/M03 A3029 RMK A01 T01551026  RH  029%=      5-min Rain = 0
KCH1 122022Z 04007KT 16/M03 A3029 RMK A01 T01551026  RH  029%=      5-min Rain = 0
KCH1 122023Z 06005KT 16/M03 A3029 RMK A01 T01551026  RH  029%=      5-min Rain = 0
KCH1 122024Z 08005KT 16/M03 A3029 RMK A01 T01551027  RH  029%=      5-min Rain = 0
KCH1 122025Z 08006KT 16/M02 A3029 RMK A01 T01561024  RH  029%=      5-min Rain = 0
KCH1 122026Z 07004KT 16/M03 A3029 RMK A01 T01571027  RH  028%=      5-min Rain = 0
KCH1 122027Z 08003KT 16/M03 A3029 RMK A01 T01561028  RH  028%=      5-min Rain = 0
KCH1 122028Z 01003KT 16/M03 A3029 RMK A01 T01551027  RH  028%=      5-min Rain = 0
KCH1 122029Z 02001KT 16/M03 A3028 RMK A01 T01551028  RH  028%=      5-min Rain = 0
KCH1 122030Z 10001KT 16/M02 A3028 RMK A01 T01571023  RH  029%=      5-min Rain = 0
KCH1 122031Z 06002KT 16/M02 A3028 RMK A01 T01611020  RH  029%=      5-min Rain = 0
KCH1 122032Z 08004KT 17/M02 A3028 RMK A01 T01651023  RH  028%=      5-min Rain = 0
KCH1 122033Z 04003KT 16/M03 A3028 RMK A01 T01631028  RH  027%=      5-min Rain = 0
KCH1 122034Z 06006KT 16/M02 A3028 RMK A01 T01631024  RH  028%=      5-min Rain = 0
KCH1 122035Z 05008KT 16/M03 A3028 RMK A01 T01631025  RH  027%=      5-min Rain = 0
KCH1 122036Z 05007KT 16/M02 A3028 RMK A01 T01621024  RH  028%=      5-min Rain = 0
KCH1 122037Z 01005KT 16/M02 A3028 RMK A01 T01631022  RH  028%=      5-min Rain = 0
KCH1 122038Z 02003KT 17/M02 A3028 RMK A01 T01651022  RH  028%=      5-min Rain = 0
KCH1 122039Z 01006KT 17/M02 A3028 RMK A01 T01671023  RH  027%=      5-min Rain = 0
KCH1 122040Z 02004KT 17/M03 A3028 RMK A01 T01651028  RH  027%=      5-min Rain = 0
KCH1 122041Z 02005KT 16/M03 A3028 RMK A01 T01631025  RH  027%=      5-min Rain = 0
KCH1 122042Z 13006KT 16/M02 A3028 RMK A01 T01641022  RH  028%=      5-min Rain = 0
KCH1 122043Z 09010G16KT 17/M02 A3028 RMK A01 T01661024  RH  027%=      5-min Rain = 0
KCH1 122044Z 08008KT 17/M03 A3028 RMK A01 T01671025  RH  027%=      5-min Rain = 0
KCH1 122045Z 05007KT 17/M03 A3028 RMK A01 T01661025  RH  027%=      5-min Rain = 0
KCH1 122046Z 06007KT 17/M03 A3028 RMK A01 T01661027  RH  027%=      5-min Rain = 0
KCH1 122047Z 05005KT 17/M03 A3028 RMK A01 T01651028  RH  027%=      5-min Rain = 0
KCH1 122048Z 09006KT 16/M03 A3028 RMK A01 T01631029  RH  027%=      5-min Rain = 0
KCH1 122049Z 10007KT 16/M03 A3027 RMK A01 T01611028  RH  027%=      5-min Rain = 0
KCH1 122050Z 07005KT 17/M02 A3027 RMK A01 T01651022  RH  028%=      5-min Rain = 0
KCH1 122051Z 11005KT 17/M02 A3027 RMK A01 T01691024  RH  027%=      5-min Rain = 0
KCH1 122052Z 08006KT 17/M02 A3027 RMK A01 T01701023  RH  027%=      5-min Rain = 0
KCH1 122053Z 04007KT 17/M03 A3027 RMK A01 T01691029  RH  026%=      5-min Rain = 0
KCH1 122054Z 05005KT 17/M03 A3027 RMK A01 T01651031  RH  026%=      5-min Rain = 0
KCH1 122055Z 05007KT 16/M03 A3027 RMK A01 T01621031  RH  026%=      5-min Rain = 0
KCH1 122056Z 08006KT 16/M03 A3027 RMK A01 T01621031  RH  027%=      5-min Rain = 0
KCH1 122057Z 06005KT 16/M03 A3027 RMK A01 T01611031  RH  027%=      5-min Rain = 0
KCH1 122058Z 04005KT 16/M03 A3027 RMK A01 T01611032  RH  027%=      5-min Rain = 0
KCH1 122059Z 04004KT 16/M03 A3027 RMK A01 T01581034  RH  026%=      5-min Rain = 0
KCH1 122100Z 05004KT 16/M03 A3027 RMK A01 T01571030  RH  027%=      5-min Rain = 0
KCH1 122101Z 10004KT 16/M03 A3027 RMK A01 T01591030  RH  027%=      5-min Rain = 0
KCH1 122102Z 11006KT 16/M03 A3027 RMK A01 T01601032  RH  027%=      5-min Rain = 0
KCH1 122103Z 11005KT 16/M03 A3027 RMK A01 T01601031  RH  027%=      5-min Rain = 0
KCH1 122104Z 14004KT 16/M03 A3027 RMK A01 T01601031  RH  027%=      5-min Rain = 0
KCH1 122105Z 08005KT 16/M03 A3027 RMK A01 T01611027  RH  028%=      5-min Rain = 0
KCH1 122106Z 04005KT 16/M03 A3027 RMK A01 T01631031  RH  026%=      5-min Rain = 0
KCH1 122107Z 06005KT 16/M03 A3027 RMK A01 T01631032  RH  026%=      5-min Rain = 0
KCH1 122108Z 06007KT 16/M03 A3027 RMK A01 T01631033  RH  026%=      5-min Rain = 0
KCH1 122109Z 05007KT 16/M03 A3027 RMK A01 T01611034  RH  026%=      5-min Rain = 0
KCH1 122110Z 06005KT 16/M03 A3027 RMK A01 T01621033  RH  026%=      5-min Rain = 0
KCH1 122111Z 07003KT 16/M03 A3027 RMK A01 T01611034  RH  026%=      5-min Rain = 0
KCH1 122112Z 04001KT 16/M03 A3027 RMK A01 T01601034  RH  026%=      5-min Rain = 0
KCH1 122113Z 29001KT 16/M03 A3027 RMK A01 T01601029  RH  027%=      5-min Rain = 0
KCH1 122114Z 29002KT 16/M03 A3027 RMK A01 T01631031  RH  026%=      5-min Rain = 0
KCH1 122115Z 34002KT 16/M03 A3027 RMK A01 T01631031  RH  026%=      5-min Rain = 0
KCH1 122116Z 03004KT 16/M03 A3027 RMK A01 T01641032  RH  026%=      5-min Rain = 0
KCH1 122117Z 03003KT 17/M03 A3027 RMK A01 T01651031  RH  026%=      5-min Rain = 0
KCH1 122118Z 05002KT 17/M03 A3027 RMK A01 T01661034  RH  025%=      5-min Rain = 0
KCH1 122119Z 06001KT 16/M04 A3027 RMK A01 T01641038  RH  025%=      5-min Rain = 0
KCH1 122120Z 05003G8KT 16/M04 A3027 RMK A01 T01621037  RH  025%=      5-min Rain = 0
KCH1 122121Z 03007KT 16/M03 A3027 RMK A01 T01621032  RH  026%=      5-min Rain = 0
KCH1 122122Z 04008KT 17/M03 A3026 RMK A01 T01651033  RH  026%=      5-min Rain = 0
KCH1 122123Z 04011KT 17/M03 A3026 RMK A01 T01661033  RH  026%=      5-min Rain = 0
KCH1 122124Z 04007KT 17/M03 A3027 RMK A01 T01651033  RH  026%=      5-min Rain = 0
KCH1 122125Z 06007KT 16/M03 A3026 RMK A01 T01631033  RH  026%=      5-min Rain = 0
KCH1 122126Z 08003KT 16/M03 A3026 RMK A01 T01621033  RH  026%=      5-min Rain = 0
KCH1 122127Z 07008KT 16/M03 A3026 RMK A01 T01631031  RH  026%=      5-min Rain = 0
KCH1 122128Z 06007KT 17/M03 A3026 RMK A01 T01651033  RH  026%=      5-min Rain = 0
KCH1 122129Z 04006KT 16/M03 A3026 RMK A01 T01631034  RH  026%=      5-min Rain = 0
KCH1 122130Z 02004KT 16/M03 A3026 RMK A01 T01621034  RH  026%=      5-min Rain = 0
KCH1 122131Z 36003KT 16/M04 A3026 RMK A01 T01621035  RH  026%=      5-min Rain = 0
KCH1 122132Z 35002KT 16/M04 A3026 RMK A01 T01621036  RH  025%=      5-min Rain = 0
KCH1 122133Z 32002KT 16/M04 A3026 RMK A01 T01611036  RH  026%=      5-min Rain = 0
KCH1 122134Z 01002KT 16/M04 A3026 RMK A01 T01621035  RH  026%=      5-min Rain = 0
KCH1 122135Z 08003KT 16/M04 A3026 RMK A01 T01621036  RH  026%=      5-min Rain = 0
KCH1 122136Z 08004KT 16/M04 A3026 RMK A01 T01621036  RH  025%=      5-min Rain = 0
KCH1 122137Z 09004KT 16/M03 A3026 RMK A01 T01621034  RH  026%=      5-min Rain = 0
KCH1 122138Z 06007KT 16/M03 A3026 RMK A01 T01641031  RH  026%=      5-min Rain = 0
KCH1 122139Z 05009KT 17/M03 A3026 RMK A01 T01691028  RH  026%=      5-min Rain = 0
KCH1 122140Z 06009KT 17/M03 A3026 RMK A01 T01711031  RH  025%=      5-min Rain = 0
KCH1 122141Z 06005KT 17/M04 A3026 RMK A01 T01651035  RH  025%=      5-min Rain = 0
KCH1 122142Z 05003KT 16/M04 A3026 RMK A01 T01631035  RH  025%=      5-min Rain = 0
KCH1 122143Z 10001KT 16/M04 A3026 RMK A01 T01621035  RH  026%=      5-min Rain = 0
KCH1 122144Z 09001KT 16/M03 A3026 RMK A01 T01611033  RH  026%=      5-min Rain = 0
KCH1 122145Z 04002KT 16/M03 A3026 RMK A01 T01631028  RH  027%=      5-min Rain = 0
KCH1 122146Z 11004KT 17/M03 A3026 RMK A01 T01651032  RH  026%=      5-min Rain = 0
KCH1 122147Z 10007KT 17/M03 A3026 RMK A01 T01661032  RH  026%=      5-min Rain = 0
KCH1 122148Z 10007KT 17/M03 A3026 RMK A01 T01661033  RH  025%=      5-min Rain = 0
KCH1 122149Z 10006KT 17/M03 A3026 RMK A01 T01651034  RH  025%=      5-min Rain = 0
KCH1 122150Z 11001KT 16/M04 A3026 RMK A01 T01631035  RH  025%=      5-min Rain = 0
KCH1 122151Z 09003KT 16/M03 A3026 RMK A01 T01631034  RH  026%=      5-min Rain = 0
KCH1 122152Z 08006KT 16/M03 A3026 RMK A01 T01641034  RH  025%=      5-min Rain = 0
KCH1 122153Z 07005KT 17/M03 A3025 RMK A01 T01651034  RH  025%=      5-min Rain = 0
KCH1 122154Z 05005KT 16/M04 A3025 RMK A01 T01641035  RH  025%=      5-min Rain = 0
KCH1 122155Z 06005KT 16/M03 A3025 RMK A01 T01631033  RH  026%=      5-min Rain = 0
KCH1 122156Z 08006KT 17/M03 A3025 RMK A01 T01661031  RH  026%=      5-min Rain = 0
KCH1 122157Z 08004KT 17/M04 A3025 RMK A01 T01661037  RH  025%=      5-min Rain = 0
KCH1 122158Z 11003KT 16/M04 A3025 RMK A01 T01621038  RH  025%=      5-min Rain = 0
KCH1 122159Z 13004KT 16/M04 A3025 RMK A01 T01611035  RH  026%=      5-min Rain = 0
KCH1 122200Z 15003KT 16/M04 A3025 RMK A01 T01621036  RH  025%=      5-min Rain = 0
KCH1 122201Z 15003KT 16/M04 A3025 RMK A01 T01631035  RH  026%=      5-min Rain = 0
KCH1 122202Z 17002KT 16/M04 A3025 RMK A01 T01641035  RH  025%=      5-min Rain = 0
KCH1 122203Z 11001KT 16/M04 A3025 RMK A01 T01641036  RH  025%=      5-min Rain = 0
KCH1 122204Z 10002KT 16/M04 A3025 RMK A01 T01641035  RH  025%=      5-min Rain = 0
KCH1 122205Z 13001KT 16/M04 A3025 RMK A01 T01641039  RH  025%=      5-min Rain = 0
KCH1 122206Z 19001KT 16/M04 A3025 RMK A01 T01641038  RH  025%=      5-min Rain = 0
KCH1 122207Z 26000KT 16/M04 A3025 RMK A01 T01641036  RH  025%=      5-min Rain = 0
KCH1 122208Z 31002KT 17/M04 A3025 RMK A01 T01661035  RH  025%=      5-min Rain = 0
KCH1 122209Z 02002KT 17/M03 A3024 RMK A01 T01681030  RH  026%=      5-min Rain = 0
KCH1 122210Z 01003KT 17/M03 A3024 RMK A01 T01731029  RH  025%=      5-min Rain = 0
KCH1 122211Z 33002KT 17/M03 A3024 RMK A01 T01741029  RH  025%=      5-min Rain = 0
KCH1 122212Z 18001KT 17/M03 A3024 RMK A01 T01741031  RH  025%=      5-min Rain = 0
KCH1 122213Z 12005KT 17/M03 A3024 RMK A01 T01731031  RH  025%=      5-min Rain = 0
KCH1 122214Z 12005KT 17/M03 A3024 RMK A01 T01721032  RH  025%=      5-min Rain = 0
KCH1 122215Z 13007KT 17/M03 A3024 RMK A01 T01711030  RH  025%=      5-min Rain = 0
KCH1 122216Z 11004KT 17/M04 A3024 RMK A01 T01691035  RH  024%=      5-min Rain = 0
KCH1 122217Z 08005KT 17/M04 A3024 RMK A01 T01651036  RH  025%=      5-min Rain = 0
KCH1 122218Z 10006KT 17/M04 A3024 RMK A01 T01651035  RH  025%=      5-min Rain = 0
KCH1 122219Z 11007KT 16/M03 A3024 RMK A01 T01631034  RH  026%=      5-min Rain = 0
KCH1 122220Z 10006KT 16/M03 A3024 RMK A01 T01621032  RH  026%=      5-min Rain = 0
KCH1 122221Z 10002KT 16/M03 A3024 RMK A01 T01641028  RH  027%=      5-min Rain = 0
KCH1 122222Z 15006KT 17/M02 A3024 RMK A01 T01671024  RH  027%=      5-min Rain = 0
KCH1 122223Z 14007KT 17/M03 A3024 RMK A01 T01691030  RH  026%=      5-min Rain = 0
KCH1 122224Z 11005KT 17/M03 A3024 RMK A01 T01671028  RH  026%=      5-min Rain = 0
KCH1 122225Z 08009KT 17/M03 A3024 RMK A01 T01681034  RH  025%=      5-min Rain = 0
KCH1 122226Z 08008KT 17/M04 A3024 RMK A01 T01651038  RH  025%=      5-min Rain = 0
KCH1 122227Z 07009KT 16/M04 A3024 RMK A01 T01631037  RH  025%=      5-min Rain = 0
KCH1 122228Z 07006KT 16/M04 A3024 RMK A01 T01631037  RH  025%=      5-min Rain = 0
KCH1 122229Z 06006KT 16/M04 A3024 RMK A01 T01631035  RH  025%=      5-min Rain = 0
KCH1 122230Z 08007KT 16/M04 A3024 RMK A01 T01641037  RH  025%=      5-min Rain = 0
KCH1 122231Z 08006KT 16/M04 A3024 RMK A01 T01641037  RH  025%=      5-min Rain = 0
KCH1 122232Z 08007KT 16/M04 A3024 RMK A01 T01631036  RH  025%=      5-min Rain = 0
KCH1 122233Z 09005KT 16/M04 A3024 RMK A01 T01641038  RH  025%=      5-min Rain = 0
KCH1 122234Z 10002KT 16/M04 A3024 RMK A01 T01621039  RH  025%=      5-min Rain = 0
KCH1 122235Z 13002KT 16/M04 A3024 RMK A01 T01611038  RH  025%=      5-min Rain = 0
KCH1 122236Z 12004KT 16/M04 A3023 RMK A01 T01621037  RH  025%=      5-min Rain = 0
KCH1 122237Z 10005KT 16/M04 A3023 RMK A01 T01631038  RH  025%=      5-min Rain = 0
KCH1 122238Z 09002KT 16/M04 A3023 RMK A01 T01621040  RH  025%=      5-min Rain = 0
KCH1 122239Z 09004G9KT 16/M04 A3023 RMK A01 T01611040  RH  025%=      5-min Rain = 0
KCH1 122240Z 10007KT 16/M04 A3023 RMK A01 T01601039  RH  025%=      5-min Rain = 0
KCH1 122241Z 09006KT 16/M04 A3023 RMK A01 T01601037  RH  026%=      5-min Rain = 0
KCH1 122242Z 08006KT 16/M04 A3023 RMK A01 T01601036  RH  026%=      5-min Rain = 0
KCH1 122243Z 11006KT 16/M03 A3023 RMK A01 T01591033  RH  026%=      5-min Rain = 0
KCH1 122244Z 13007KT 16/M03 A3023 RMK A01 T01601031  RH  027%=      5-min Rain = 0
KCH1 122245Z 12010KT 16/M03 A3023 RMK A01 T01621029  RH  027%=      5-min Rain = 0
KCH1 122246Z 12010KT 16/M03 A3023 RMK A01 T01621031  RH  026%=      5-min Rain = 0
KCH1 122247Z 12008KT 16/M03 A3023 RMK A01 T01611032  RH  026%=      5-min Rain = 0
KCH1 122248Z 11006KT 16/M03 A3023 RMK A01 T01601032  RH  027%=      5-min Rain = 0
KCH1 122249Z 10008KT 16/M03 A3023 RMK A01 T01601032  RH  027%=      5-min Rain = 0
KCH1 122250Z 12007KT 16/M03 A3023 RMK A01 T01611033  RH  026%=      5-min Rain = 0
KCH1 122251Z 13007KT 16/M03 A3023 RMK A01 T01621033  RH  026%=      5-min Rain = 0
KCH1 122252Z 13006KT 16/M03 A3023 RMK A01 T01621032  RH  026%=      5-min Rain = 0
KCH1 122253Z 12007KT 16/M03 A3023 RMK A01 T01631031  RH  026%=      5-min Rain = 0
KCH1 122254Z 11010KT 16/M03 A3023 RMK A01 T01631033  RH  026%=      5-min Rain = 0
KCH1 122255Z 11008KT 16/M03 A3023 RMK A01 T01601031  RH  027%=      5-min Rain = 0
KCH1 122256Z 11008KT 16/M03 A3023 RMK A01 T01601032  RH  027%=      5-min Rain = 0
KCH1 122257Z 10008KT 16/M03 A3023 RMK A01 T01601032  RH  027%=      5-min Rain = 0
KCH1 122258Z 11006KT 16/M03 A3023 RMK A01 T01591032  RH  027%=      5-min Rain = 0
KCH1 122259Z 10009KT 16/M03 A3023 RMK A01 T01591032  RH  027%=      5-min Rain = 0
KCH1 122300Z 11008KT 16/M03 A3023 RMK A01 T01591033  RH  026%=      5-min Rain = 0
KCH1 122301Z 12009KT 16/M03 A3023 RMK A01 T01591034  RH  026%=      5-min Rain = 0
KCH1 122302Z 12005KT 16/M04 A3023 RMK A01 T01581035  RH  026%=      5-min Rain = 0
KCH1 122303Z 12006KT 16/M03 A3023 RMK A01 T01571033  RH  027%=      5-min Rain = 0
KCH1 122304Z 11004KT 16/M03 A3023 RMK A01 T01581034  RH  026%=      5-min Rain = 0
KCH1 122305Z 10006KT 16/M03 A3023 RMK A01 T01581034  RH  026%=      5-min Rain = 0
KCH1 122306Z 10008KT 16/M03 A3023 RMK A01 T01591034  RH  026%=      5-min Rain = 0
KCH1 122307Z 10007KT 16/M03 A3023 RMK A01 T01601034  RH  026%=      5-min Rain = 0
KCH1 122308Z 11007KT 16/M03 A3023 RMK A01 T01601033  RH  026%=      5-min Rain = 0
KCH1 122309Z 11004KT 16/M04 A3023 RMK A01 T01591035  RH  026%=      5-min Rain = 0
KCH1 122310Z 11003KT 16/M04 A3023 RMK A01 T01581036  RH  026%=      5-min Rain = 0
KCH1 122311Z 10004KT 16/M04 A3023 RMK A01 T01581035  RH  026%=      5-min Rain = 0
KCH1 122312Z 08007KT 16/M03 A3023 RMK A01 T01581034  RH  026%=      5-min Rain = 0
KCH1 122313Z 07009KT 16/M03 A3023 RMK A01 T01601033  RH  027%=      5-min Rain = 0
KCH1 122314Z 08007KT 16/M04 A3023 RMK A01 T01591035  RH  026%=      5-min Rain = 0
KCH1 122315Z 08005KT 16/M04 A3023 RMK A01 T01571035  RH  026%=      5-min Rain = 0
KCH1 122316Z 08006KT 16/M03 A3023 RMK A01 T01571034  RH  027%=      5-min Rain = 0
KCH1 122317Z 10006KT 16/M04 A3023 RMK A01 T01581035  RH  026%=      5-min Rain = 0
KCH1 122318Z 11010KT 16/M03 A3023 RMK A01 T01581033  RH  027%=      5-min Rain = 0
KCH1 122319Z 11009KT 16/M04 A3023 RMK A01 T01581036  RH  026%=      5-min Rain = 0
KCH1 122320Z 10009KT 16/M04 A3023 RMK A01 T01571035  RH  027%=      5-min Rain = 0
KCH1 122321Z 10008KT 16/M04 A3022 RMK A01 T01571035  RH  027%=      5-min Rain = 0
KCH1 122322Z 09008KT 16/M04 A3022 RMK A01 T01571035  RH  027%=      5-min Rain = 0
KCH1 122323Z 08011KT 16/M04 A3022 RMK A01 T01581035  RH  026%=      5-min Rain = 0
KCH1 122324Z 10007KT 16/M04 A3022 RMK A01 T01581036  RH  026%=      5-min Rain = 0
KCH1 122325Z 11007KT 16/M04 A3022 RMK A01 T01581035  RH  026%=      5-min Rain = 0
KCH1 122326Z 09006KT 16/M04 A3022 RMK A01 T01571035  RH  026%=      5-min Rain = 0
KCH1 122327Z 10006KT 16/M03 A3022 RMK A01 T01581034  RH  027%=      5-min Rain = 0
KCH1 122328Z 09009KT 16/M03 A3022 RMK A01 T01591034  RH  026%=      5-min Rain = 0
KCH1 122329Z 10010KT 16/M04 A3022 RMK A01 T01591035  RH  026%=      5-min Rain = 0
KCH1 122330Z 11007KT 16/M04 A3022 RMK A01 T01571036  RH  026%=      5-min Rain = 0
KCH1 122331Z 12007KT 16/M03 A3022 RMK A01 T01561034  RH  027%=      5-min Rain = 0
KCH1 122332Z 12008KT 16/M03 A3022 RMK A01 T01561034  RH  027%=      5-min Rain = 0
KCH1 122333Z 11007KT 16/M04 A3022 RMK A01 T01561035  RH  027%=      5-min Rain = 0
KCH1 122334Z 11007KT 16/M04 A3022 RMK A01 T01551036  RH  027%=      5-min Rain = 0
KCH1 122335Z 11009KT 15/M04 A3022 RMK A01 T01541036  RH  027%=      5-min Rain = 0
KCH1 122336Z 10010KT 15/M04 A3022 RMK A01 T01531037  RH  027%=      5-min Rain = 0
KCH1 122337Z 09009KT 15/M04 A3022 RMK A01 T01521038  RH  027%=      5-min Rain = 0
KCH1 122338Z 09009KT 15/M04 A3022 RMK A01 T01521036  RH  027%=      5-min Rain = 0
KCH1 122339Z 11008KT 15/M04 A3022 RMK A01 T01521036  RH  027%=      5-min Rain = 0
KCH1 122340Z 12009KT 15/M04 A3022 RMK A01 T01521035  RH  027%=      5-min Rain = 0
KCH1 122341Z 11009KT 15/M04 A3022 RMK A01 T01511037  RH  027%=      5-min Rain = 0
KCH1 122342Z 10007KT 15/M04 A3022 RMK A01 T01501037  RH  027%=      5-min Rain = 0
KCH1 122343Z 10008KT 15/M04 A3022 RMK A01 T01491037  RH  027%=      5-min Rain = 0
KCH1 122344Z 08010KT 15/M04 A3022 RMK A01 T01491037  RH  027%=      5-min Rain = 0
KCH1 122345Z 11007KT 15/M04 A3022 RMK A01 T01491037  RH  027%=      5-min Rain = 0
KCH1 122346Z 11007KT 15/M04 A3022 RMK A01 T01501037  RH  027%=      5-min Rain = 0
KCH1 122347Z 11006KT 15/M04 A3022 RMK A01 T01491039  RH  027%=      5-min Rain = 0
KCH1 122348Z 11008KT 15/M04 A3022 RMK A01 T01501037  RH  027%=      5-min Rain = 0
KCH1 122349Z 11009KT 15/M04 A3022 RMK A01 T01501037  RH  027%=      5-min Rain = 0
KCH1 122350Z 12007KT 15/M04 A3022 RMK A01 T01501038  RH  027%=      5-min Rain = 0
KCH1 122351Z 11007KT 15/M04 A3022 RMK A01 T01501038  RH  027%=      5-min Rain = 0
KCH1 122352Z 10008KT 15/M04 A3022 RMK A01 T01501036  RH  028%=      5-min Rain = 0
KCH1 122353Z 09009KT 15/M04 A3022 RMK A01 T01501036  RH  027%=      5-min Rain = 0
KCH1 122354Z 09008KT 15/M04 A3022 RMK A01 T01501038  RH  027%=      5-min Rain = 0
KCH1 122355Z 09007KT 15/M04 A3022 RMK A01 T01501037  RH  027%=      5-min Rain = 0
KCH1 122356Z 09008KT 15/M04 A3022 RMK A01 T01491037  RH  027%=      5-min Rain = 0
KCH1 122357Z 09007KT 15/M04 A3022 RMK A01 T01491038  RH  027%=      5-min Rain = 0
KCH1 122358Z 10007KT 15/M04 A3022 RMK A01 T01481038  RH  027%=      5-min Rain = 0
KCH1 122359Z 10007KT 15/M04 A3022 RMK A01 T01481038  RH  028%=      5-min Rain = 0
KCH1 130000Z 10007KT 15/M04 A3022 RMK A01 T01471038  RH  028%=      5-min Rain = 0
KCH1 130001Z 10007KT 15/M04 A3022 RMK A01 T01471037  RH  028%=      5-min Rain = 0
KCH1 130002Z 11007KT 15/M04 A3022 RMK A01 T01461036  RH  028%=      5-min Rain = 0
KCH1 130003Z 11007KT 15/M04 A3022 RMK A01 T01451037  RH  028%=      5-min Rain = 0
KCH1 130004Z 10008KT 14/M04 A3022 RMK A01 T01441037  RH  028%=      5-min Rain = 0
KCH1 130005Z 10006KT 14/M04 A3022 RMK A01 T01431038  RH  028%=      5-min Rain = 0
KCH1 130006Z 08007KT 14/M04 A3022 RMK A01 T01431038  RH  028%=      5-min Rain = 0
KCH1 130007Z 08009KT 14/M04 A3022 RMK A01 T01421038  RH  028%=      5-min Rain = 0
KCH1 130008Z 08008KT 14/M04 A3022 RMK A01 T01421038  RH  028%=      5-min Rain = 0
KCH1 130009Z 08007KT 14/M04 A3022 RMK A01 T01421039  RH  028%=      5-min Rain = 0
KCH1 130010Z 09007KT 14/M04 A3022 RMK A01 T01411039  RH  028%=      5-min Rain = 0
KCH1 130011Z 09005KT 14/M04 A3023 RMK A01 T01411040  RH  028%=      5-min Rain = 0
KCH1 130012Z 10007KT 14/M04 A3023 RMK A01 T01401040  RH  029%=      5-min Rain = 0
KCH1 130013Z 11006KT 14/M04 A3023 RMK A01 T01401039  RH  029%=      5-min Rain = 0
KCH1 130014Z 09004KT 14/M04 A3023 RMK A01 T01391039  RH  029%=      5-min Rain = 0
KCH1 130015Z 09005KT 14/M04 A3023 RMK A01 T01381039  RH  029%=      5-min Rain = 0
KCH1 130016Z 08005KT 14/M04 A3023 RMK A01 T01381039  RH  029%=      5-min Rain = 0
KCH1 130017Z 09005KT 14/M04 A3023 RMK A01 T01371039  RH  029%=      5-min Rain = 0
KCH1 130018Z 09005KT 14/M04 A3023 RMK A01 T01371038  RH  029%=      5-min Rain = 0
KCH1 130019Z 09006KT 14/M04 A3023 RMK A01 T01371039  RH  029%=      5-min Rain = 0
KCH1 130020Z 09005KT 14/M04 A3023 RMK A01 T01371038  RH  029%=      5-min Rain = 0
KCH1 130021Z 09005KT 14/M04 A3023 RMK A01 T01361038  RH  030%=      5-min Rain = 0
KCH1 130022Z 09005KT 14/M04 A3023 RMK A01 T01361039  RH  029%=      5-min Rain = 0
KCH1 130023Z 08005KT 14/M04 A3023 RMK A01 T01361039  RH  029%=      5-min Rain = 0
KCH1 130024Z 09005KT 14/M04 A3023 RMK A01 T01361039  RH  030%=      5-min Rain = 0
KCH1 130025Z 09004KT 14/M04 A3023 RMK A01 T01351039  RH  030%=      5-min Rain = 0
KCH1 130026Z 09005KT 14/M04 A3023 RMK A01 T01351038  RH  030%=      5-min Rain = 0
KCH1 130027Z 09006KT 13/M04 A3023 RMK A01 T01341039  RH  030%=      5-min Rain = 0
KCH1 130028Z 09006KT 13/M04 A3023 RMK A01 T01341039  RH  030%=      5-min Rain = 0
KCH1 130029Z 09005KT 13/M04 A3023 RMK A01 T01341039  RH  030%=      5-min Rain = 0
KCH1 130030Z 09005KT 13/M04 A3023 RMK A01 T01341039  RH  030%=      5-min Rain = 0
KCH1 130031Z 09005KT 13/M04 A3023 RMK A01 T01341039  RH  030%=      5-min Rain = 0
KCH1 130032Z 09005KT 13/M04 A3023 RMK A01 T01341039  RH  030%=      5-min Rain = 0
KCH1 130033Z 08005KT 13/M04 A3023 RMK A01 T01331038  RH  030%=      5-min Rain = 0
KCH1 130034Z 08004KT 13/M04 A3023 RMK A01 T01331038  RH  030%=      5-min Rain = 0
KCH1 130035Z 08005KT 13/M04 A3023 RMK A01 T01321038  RH  031%=      5-min Rain = 0
KCH1 130036Z 09005KT 13/M04 A3023 RMK A01 T01311038  RH  031%=      5-min Rain = 0
KCH1 130037Z 09004KT 13/M04 A3023 RMK A01 T01301037  RH  031%=      5-min Rain = 0
KCH1 130038Z 09004KT 13/M04 A3023 RMK A01 T01301038  RH  031%=      5-min Rain = 0
KCH1 130039Z 09004KT 13/M04 A3023 RMK A01 T01301038  RH  031%=      5-min Rain = 0
KCH1 130040Z 09004KT 13/M04 A3023 RMK A01 T01301038  RH  031%=      5-min Rain = 0
KCH1 130041Z 09004KT 13/M04 A3023 RMK A01 T01291038  RH  031%=      5-min Rain = 0
KCH1 130042Z 09004KT 13/M04 A3023 RMK A01 T01291038  RH  031%=      5-min Rain = 0
KCH1 130043Z 09004KT 13/M04 A3023 RMK A01 T01291037  RH  031%=      5-min Rain = 0
KCH1 130044Z 09004KT 13/M04 A3023 RMK A01 T01281038  RH  031%=      5-min Rain = 0
KCH1 130045Z 09004KT 13/M04 A3023 RMK A01 T01281038  RH  031%=      5-min Rain = 0
KCH1 130046Z 09004KT 13/M04 A3023 RMK A01 T01281037  RH  031%=      5-min Rain = 0
KCH1 130047Z 09004KT 13/M04 A3023 RMK A01 T01281038  RH  031%=      5-min Rain = 0
KCH1 130048Z 09004KT 13/M04 A3023 RMK A01 T01281037  RH  031%=      5-min Rain = 0
KCH1 130049Z 09004KT 13/M04 A3023 RMK A01 T01281038  RH  031%=      5-min Rain = 0
KCH1 130050Z 09004KT 13/M04 A3023 RMK A01 T01281037  RH  032%=      5-min Rain = 0
KCH1 130051Z 09003KT 13/M04 A3023 RMK A01 T01271037  RH  032%=      5-min Rain = 0
KCH1 130052Z 09004KT 13/M04 A3023 RMK A01 T01271037  RH  032%=      5-min Rain = 0
KCH1 130053Z 09003KT 13/M04 A3023 RMK A01 T01271037  RH  032%=      5-min Rain = 0
KCH1 130054Z 09003KT 13/M04 A3023 RMK A01 T01271037  RH  032%=      5-min Rain = 0
KCH1 130055Z 09003KT 13/M04 A3023 RMK A01 T01271037  RH  032%=      5-min Rain = 0
KCH1 130056Z 09003KT 13/M04 A3023 RMK A01 T01271036  RH  032%=      5-min Rain = 0
KCH1 130057Z 09003KT 13/M04 A3024 RMK A01 T01271036  RH  032%=      5-min Rain = 0
KCH1 130058Z 09003KT 13/M04 A3024 RMK A01 T01271036  RH  032%=      5-min Rain = 0
KCH1 130059Z 09003KT 13/M04 A3024 RMK A01 T01271036  RH  032%=      5-min Rain = 0
KCH1 130100Z 09003KT 13/M04 A3024 RMK A01 T01271036  RH  032%=      5-min Rain = 0
KCH1 130101Z 09003KT 13/M04 A3024 RMK A01 T01271035  RH  032%=      5-min Rain = 0
KCH1 130102Z 09003KT 13/M04 A3024 RMK A01 T01271035  RH  032%=      5-min Rain = 0
KCH1 130103Z 09003KT 13/M04 A3024 RMK A01 T01261035  RH  032%=      5-min Rain = 0
KCH1 130104Z 09003KT 13/M04 A3024 RMK A01 T01261035  RH  032%=      5-min Rain = 0
KCH1 130105Z 09003KT 13/M04 A3024 RMK A01 T01251035  RH  033%=      5-min Rain = 0
KCH1 130106Z 09004KT 13/M04 A3023 RMK A01 T01251035  RH  033%=      5-min Rain = 0
KCH1 130107Z 09004KT 12/M04 A3023 RMK A01 T01241035  RH  033%=      5-min Rain = 0
KCH1 130108Z 08003KT 12/M04 A3023 RMK A01 T01241035  RH  033%=      5-min Rain = 0
KCH1 130109Z 08003KT 12/M04 A3023 RMK A01 T01231035  RH  033%=      5-min Rain = 0
KCH1 130110Z 08003KT 12/M04 A3023 RMK A01 T01221035  RH  033%=      5-min Rain = 0
KCH1 130111Z 08003KT 12/M04 A3023 RMK A01 T01211035  RH  033%=      5-min Rain = 0
KCH1 130112Z 08003KT 12/M04 A3023 RMK A01 T01211035  RH  034%=      5-min Rain = 0
KCH1 130113Z 08003KT 12/M04 A3023 RMK A01 T01191035  RH  034%=      5-min Rain = 0
KCH1 130114Z 08003KT 12/M04 A3023 RMK A01 T01181036  RH  034%=      5-min Rain = 0
KCH1 130115Z 07003KT 12/M04 A3023 RMK A01 T01171036  RH  034%=      5-min Rain = 0
KCH1 130116Z 07003KT 12/M04 A3023 RMK A01 T01171036  RH  034%=      5-min Rain = 0
KCH1 130117Z 07003KT 12/M04 A3023 RMK A01 T01161036  RH  034%=      5-min Rain = 0
KCH1 130118Z 07003KT 12/M04 A3023 RMK A01 T01151036  RH  035%=      5-min Rain = 0
KCH1 130119Z 07003KT 11/M04 A3023 RMK A01 T01141036  RH  035%=      5-min Rain = 0
KCH1 130120Z 07002KT 11/M04 A3023 RMK A01 T01131036  RH  035%=      5-min Rain = 0
KCH1 130121Z 07002KT 11/M04 A3023 RMK A01 T01131036  RH  035%=      5-min Rain = 0
KCH1 130122Z 07003KT 11/M04 A3023 RMK A01 T01121036  RH  035%=      5-min Rain = 0
KCH1 130123Z 07003KT 11/M04 A3023 RMK A01 T01121036  RH  035%=      5-min Rain = 0
KCH1 130124Z 07003KT 11/M04 A3023 RMK A01 T01111036  RH  035%=      5-min Rain = 0
KCH1 130125Z 07003KT 11/M04 A3023 RMK A01 T01111035  RH  036%=      5-min Rain = 0
KCH1 130126Z 06003KT 11/M04 A3023 RMK A01 T01111035  RH  036%=      5-min Rain = 0
KCH1 130127Z 06003KT 11/M04 A3023 RMK A01 T01111035  RH  036%=      5-min Rain = 0
KCH1 130128Z 06003KT 11/M04 A3023 RMK A01 T01101035  RH  036%=      5-min Rain = 0
KCH1 130129Z 06003KT 11/M04 A3023 RMK A01 T01091035  RH  036%=      5-min Rain = 0
KCH1 130130Z 06004KT 11/M04 A3023 RMK A01 T01081036  RH  036%=      5-min Rain = 0
KCH1 130131Z 06004KT 11/M04 A3023 RMK A01 T01071036  RH  036%=      5-min Rain = 0
KCH1 130132Z 06004KT 11/M04 A3023 RMK A01 T01061036  RH  037%=      5-min Rain = 0
KCH1 130133Z 06004KT 11/M04 A3023 RMK A01 T01061035  RH  037%=      5-min Rain = 0
KCH1 130134Z 06004KT 11/M04 A3023 RMK A01 T01051035  RH  037%=      5-min Rain = 0
KCH1 130135Z 06004KT 11/M03 A3023 RMK A01 T01051034  RH  037%=      5-min Rain = 0
KCH1 130136Z 06004KT 10/M04 A3023 RMK A01 T01041035  RH  038%=      5-min Rain = 0
KCH1 130137Z 06004KT 10/M04 A3023 RMK A01 T01031035  RH  038%=      5-min Rain = 0
KCH1 130138Z 05004KT 10/M04 A3023 RMK A01 T01021035  RH  038%=      5-min Rain = 0
KCH1 130139Z 05004KT 10/M04 A3023 RMK A01 T01011035  RH  038%=      5-min Rain = 0
KCH1 130140Z 05005KT 10/M04 A3023 RMK A01 T01001035  RH  038%=      5-min Rain = 0
KCH1 130141Z 06005KT 10/M04 A3023 RMK A01 T00991035  RH  039%=      5-min Rain = 0
KCH1 130142Z 06005KT 10/M04 A3023 RMK A01 T00981035  RH  039%=      5-min Rain = 0
KCH1 130143Z 06004KT 10/M04 A3023 RMK A01 T00971036  RH  039%=      5-min Rain = 0
KCH1 130144Z 06004KT 10/M04 A3023 RMK A01 T00961035  RH  039%=      5-min Rain = 0
KCH1 130145Z 06004KT 10/M04 A3023 RMK A01 T00951035  RH  040%=      5-min Rain = 0
KCH1 130146Z 06004KT 09/M04 A3023 RMK A01 T00941035  RH  040%=      5-min Rain = 0
KCH1 130147Z 06004KT 09/M04 A3023 RMK A01 T00941035  RH  040%=      5-min Rain = 0
KCH1 130148Z 06004KT 09/M03 A3023 RMK A01 T00941034  RH  040%=      5-min Rain = 0
KCH1 130149Z 06004KT 09/M03 A3023 RMK A01 T00941033  RH  041%=      5-min Rain = 0
KCH1 130150Z 06004KT 09/M03 A3023 RMK A01 T00941034  RH  041%=      5-min Rain = 0
KCH1 130151Z 06004KT 09/M03 A3023 RMK A01 T00941033  RH  041%=      5-min Rain = 0
KCH1 130152Z 06004KT 09/M03 A3023 RMK A01 T00941034  RH  041%=      5-min Rain = 0
KCH1 130153Z 06005KT 09/M03 A3023 RMK A01 T00941034  RH  040%=      5-min Rain = 0
KCH1 130154Z 05006KT 09/M03 A3023 RMK A01 T00941034  RH  040%=      5-min Rain = 0
KCH1 130155Z 06005KT 09/M03 A3023 RMK A01 T00941034  RH  040%=      5-min Rain = 0
KCH1 130156Z 06005KT 09/M03 A3023 RMK A01 T00931034  RH  041%=      5-min Rain = 0
KCH1 130157Z 05005KT 09/M03 A3023 RMK A01 T00931033  RH  041%=      5-min Rain = 0
KCH1 130158Z 06005KT 09/M03 A3024 RMK A01 T00921033  RH  041%=      5-min Rain = 0
KCH1 130159Z 05005KT 09/M03 A3024 RMK A01 T00921033  RH  041%=      5-min Rain = 0
KCH1 130200Z 06005KT 09/M03 A3024 RMK A01 T00921033  RH  041%=      5-min Rain = 0
KCH1 130201Z 06005KT 09/M03 A3024 RMK A01 T00911033  RH  042%=      5-min Rain = 0
KCH1 130202Z 06005KT 09/M03 A3024 RMK A01 T00911033  RH  042%=      5-min Rain = 0
KCH1 130203Z 05005KT 09/M03 A3024 RMK A01 T00911033  RH  042%=      5-min Rain = 0
KCH1 130204Z 05005KT 09/M03 A3024 RMK A01 T00901032  RH  042%=      5-min Rain = 0
KCH1 130205Z 05005KT 09/M03 A3024 RMK A01 T00901032  RH  042%=      5-min Rain = 0
KCH1 130206Z 06005KT 09/M03 A3024 RMK A01 T00901032  RH  042%=      5-min Rain = 0
KCH1 130207Z 06005KT 09/M03 A3024 RMK A01 T00891032  RH  042%=      5-min Rain = 0
KCH1 130208Z 06005KT 09/M03 A3024 RMK A01 T00881032  RH  043%=      5-min Rain = 0
KCH1 130209Z 05005KT 09/M03 A3024 RMK A01 T00871032  RH  043%=      5-min Rain = 0
KCH1 130210Z 05005KT 09/M03 A3024 RMK A01 T00861032  RH  043%=      5-min Rain = 0
KCH1 130211Z 05005KT 09/M03 A3024 RMK A01 T00861032  RH  043%=      5-min Rain = 0
KCH1 130212Z 06005KT 09/M03 A3024 RMK A01 T00851032  RH  044%=      5-min Rain = 0
KCH1 130213Z 06005KT 09/M03 A3024 RMK A01 T00851031  RH  044%=      5-min Rain = 0
KCH1 130214Z 05005KT 09/M03 A3024 RMK A01 T00851031  RH  044%=      5-min Rain = 0
KCH1 130215Z 05005KT 09/M03 A3024 RMK A01 T00851032  RH  044%=      5-min Rain = 0
KCH1 130216Z 05005KT 09/M03 A3024 RMK A01 T00851032  RH  044%=      5-min Rain = 0
KCH1 130217Z 05005KT 08/M03 A3024 RMK A01 T00841032  RH  044%=      5-min Rain = 0
KCH1 130218Z 05005KT 08/M03 A3024 RMK A01 T00841032  RH  044%=      5-min Rain = 0
KCH1 130219Z 05005KT 08/M03 A3024 RMK A01 T00841032  RH  044%=      5-min Rain = 0
KCH1 130220Z 05005KT 08/M03 A3024 RMK A01 T00841032  RH  044%=      5-min Rain = 0
KCH1 130221Z 05005KT 08/M03 A3024 RMK A01 T00841031  RH  044%=      5-min Rain = 0
KCH1 130222Z 05005KT 08/M03 A3024 RMK A01 T00841031  RH  044%=      5-min Rain = 0
KCH1 130223Z 05005KT 08/M03 A3024 RMK A01 T00841032  RH  044%=      5-min Rain = 0
KCH1 130224Z 05005KT 08/M03 A3024 RMK A01 T00841032  RH  044%=      5-min Rain = 0
KCH1 130225Z 05005KT 08/M03 A3024 RMK A01 T00841032  RH  044%=      5-min Rain = 0
KCH1 130226Z 05004KT 09/M03 A3024 RMK A01 T00851031  RH  044%=      5-min Rain = 0
KCH1 130227Z 05004KT 09/M03 A3024 RMK A01 T00851031  RH  044%=      5-min Rain = 0
KCH1 130228Z 05004KT 09/M03 A3024 RMK A01 T00851031  RH  044%=      5-min Rain = 0
KCH1 130229Z 05004KT 09/M03 A3024 RMK A01 T00851031  RH  044%=      5-min Rain = 0
KCH1 130230Z 05004KT 08/M03 A3024 RMK A01 T00841031  RH  044%=      5-min Rain = 0
KCH1 130231Z 05004KT 08/M03 A3024 RMK A01 T00841031  RH  044%=      5-min Rain = 0
KCH1 130232Z 05004KT 08/M03 A3025 RMK A01 T00841031  RH  044%=      5-min Rain = 0
KCH1 130233Z 05004KT 08/M03 A3025 RMK A01 T00841031  RH  044%=      5-min Rain = 0
KCH1 130234Z 05004KT 08/M03 A3025 RMK A01 T00841031  RH  044%=      5-min Rain = 0
KCH1 130235Z 05004KT 08/M03 A3025 RMK A01 T00841031  RH  044%=      5-min Rain = 0
KCH1 130236Z 05004KT 08/M03 A3025 RMK A01 T00841031  RH  044%=      5-min Rain = 0
KCH1 130237Z 05004KT 08/M03 A3025 RMK A01 T00841031  RH  044%=      5-min Rain = 0
KCH1 130238Z 05005KT 08/M03 A3025 RMK A01 T00841031  RH  044%=      5-min Rain = 0
KCH1 130239Z 05005KT 08/M03 A3025 RMK A01 T00841031  RH  044%=      5-min Rain = 0
KCH1 130240Z 05005KT 08/M03 A3025 RMK A01 T00831031  RH  044%=      5-min Rain = 0
KCH1 130241Z 05005KT 08/M03 A3025 RMK A01 T00831031  RH  044%=      5-min Rain = 0
KCH1 130242Z 05005KT 08/M03 A3025 RMK A01 T00831031  RH  045%=      5-min Rain = 0
KCH1 130243Z 05005KT 08/M03 A3025 RMK A01 T00821031  RH  045%=      5-min Rain = 0
KCH1 130244Z 05005KT 08/M03 A3025 RMK A01 T00821031  RH  045%=      5-min Rain = 0
KCH1 130245Z 05004KT 08/M03 A3025 RMK A01 T00821031  RH  045%=      5-min Rain = 0
KCH1 130246Z 05004KT 08/M03 A3025 RMK A01 T00811031  RH  045%=      5-min Rain = 0
KCH1 130247Z 05004KT 08/M03 A3025 RMK A01 T00811031  RH  045%=      5-min Rain = 0
KCH1 130248Z 05004KT 08/M03 A3025 RMK A01 T00811030  RH  045%=      5-min Rain = 0
KCH1 130249Z 05004KT 08/M03 A3025 RMK A01 T00801031  RH  046%=      5-min Rain = 0
KCH1 130250Z 05005KT 08/M03 A3025 RMK A01 T00791030  RH  046%=      5-min Rain = 0
KCH1 130251Z 05005KT 08/M03 A3025 RMK A01 T00791030  RH  046%=      5-min Rain = 0
KCH1 130252Z 05005KT 08/M03 A3025 RMK A01 T00781030  RH  046%=      5-min Rain = 0
KCH1 130253Z 05005KT 08/M03 A3025 RMK A01 T00781030  RH  046%=      5-min Rain = 0
KCH1 130254Z 05005KT 08/M03 A3025 RMK A01 T00781029  RH  047%=      5-min Rain = 0
KCH1 130255Z 05005KT 08/M03 A3025 RMK A01 T00771030  RH  047%=      5-min Rain = 0
KCH1 130256Z 05004KT 08/M03 A3025 RMK A01 T00771030  RH  047%=      5-min Rain = 0
KCH1 130257Z 05004KT 08/M03 A3026 RMK A01 T00771030  RH  047%=      5-min Rain = 0
KCH1 130258Z 05004KT 08/M03 A3026 RMK A01 T00771030  RH  047%=      5-min Rain = 0
KCH1 130259Z 05004KT 08/M03 A3026 RMK A01 T00771030  RH  047%=      5-min Rain = 0
KCH1 130300Z 05004KT 08/M03 A3026 RMK A01 T00771030  RH  047%=      5-min Rain = 0
KCH1 130301Z 05004KT 08/M03 A3026 RMK A01 T00771030  RH  047%=      5-min Rain = 0
KCH1 130302Z 05004KT 08/M03 A3026 RMK A01 T00771030  RH  047%=      5-min Rain = 0
KCH1 130303Z 05004KT 08/M03 A3026 RMK A01 T00771029  RH  047%=      5-min Rain = 0
KCH1 130304Z 05005KT 08/M03 A3026 RMK A01 T00771030  RH  047%=      5-min Rain = 0
KCH1 130305Z 05005KT 08/M03 A3026 RMK A01 T00771029  RH  047%=      5-min Rain = 0
KCH1 130306Z 05005KT 08/M03 A3025 RMK A01 T00771029  RH  047%=      5-min Rain = 0
KCH1 130307Z 05005KT 08/M03 A3025 RMK A01 T00771029  RH  047%=      5-min Rain = 0
KCH1 130308Z 05005KT 08/M03 A3025 RMK A01 T00771029  RH  047%=      5-min Rain = 0
KCH1 130309Z 05004KT 08/M03 A3025 RMK A01 T00771028  RH  047%=      5-min Rain = 0
KCH1 130310Z 05005KT 08/M03 A3025 RMK A01 T00771028  RH  047%=      5-min Rain = 0
KCH1 130311Z 05005KT 08/M03 A3025 RMK A01 T00771028  RH  047%=      5-min Rain = 0
KCH1 130312Z 05005KT 08/M03 A3025 RMK A01 T00771028  RH  047%=      5-min Rain = 0
KCH1 130313Z 05005KT 08/M03 A3025 RMK A01 T00771028  RH  047%=      5-min Rain = 0
KCH1 130314Z 05005KT 08/M03 A3025 RMK A01 T00771028  RH  047%=      5-min Rain = 0
KCH1 130315Z 06005KT 08/M03 A3025 RMK A01 T00761028  RH  048%=      5-min Rain = 0
KCH1 130316Z 06004KT 08/M03 A3026 RMK A01 T00761028  RH  048%=      5-min Rain = 0
KCH1 130317Z 06004KT 08/M03 A3026 RMK A01 T00751028  RH  048%=      5-min Rain = 0
KCH1 130318Z 06004KT 08/M03 A3026 RMK A01 T00751028  RH  048%=      5-min Rain = 0
KCH1 130319Z 06004KT 08/M03 A3026 RMK A01 T00751028  RH  048%=      5-min Rain = 0
KCH1 130320Z 05004KT 07/M03 A3026 RMK A01 T00741028  RH  048%=      5-min Rain = 0
KCH1 130321Z 05005KT 07/M03 A3026 RMK A01 T00741028  RH  048%=      5-min Rain = 0
KCH1 130322Z 05005KT 07/M03 A3026 RMK A01 T00741028  RH  048%=      5-min Rain = 0
KCH1 130323Z 05005KT 07/M03 A3026 RMK A01 T00741028  RH  048%=      5-min Rain = 0
KCH1 130324Z 05005KT 07/M03 A3026 RMK A01 T00731028  RH  048%=      5-min Rain = 0
KCH1 130325Z 05005KT 07/M03 A3026 RMK A01 T00741028  RH  049%=      5-min Rain = 0
KCH1 130326Z 05005KT 07/M03 A3026 RMK A01 T00741027  RH  049%=      5-min Rain = 0
KCH1 130327Z 05005KT 07/M03 A3026 RMK A01 T00741027  RH  049%=      5-min Rain = 0
KCH1 130328Z 05005KT 07/M03 A3026 RMK A01 T00741027  RH  049%=      5-min Rain = 0
KCH1 130329Z 05005KT 07/M03 A3026 RMK A01 T00731027  RH  049%=      5-min Rain = 0
KCH1 130330Z 05005KT 07/M03 A3026 RMK A01 T00741027  RH  049%=      5-min Rain = 0
KCH1 130331Z 05005KT 07/M03 A3026 RMK A01 T00741027  RH  049%=      5-min Rain = 0
KCH1 130332Z 05005KT 07/M03 A3026 RMK A01 T00741028  RH  048%=      5-min Rain = 0
KCH1 130333Z 05005KT 07/M03 A3026 RMK A01 T00741027  RH  048%=      5-min Rain = 0
KCH1 130334Z 05005KT 07/M03 A3026 RMK A01 T00741028  RH  048%=      5-min Rain = 0
KCH1 130335Z 05005KT 07/M03 A3026 RMK A01 T00741028  RH  048%=      5-min Rain = 0
KCH1 130336Z 05005KT 07/M03 A3026 RMK A01 T00741027  RH  049%=      5-min Rain = 0
KCH1 130337Z 05005KT 07/M03 A3026 RMK A01 T00741028  RH  049%=      5-min Rain = 0
KCH1 130338Z 05005KT 07/M03 A3026 RMK A01 T00741028  RH  048%=      5-min Rain = 0
KCH1 130339Z 05004KT 07/M03 A3026 RMK A01 T00741028  RH  048%=      5-min Rain = 0
KCH1 130340Z 05005KT 07/M03 A3026 RMK A01 T00741027  RH  048%=      5-min Rain = 0
KCH1 130341Z 05005KT 07/M03 A3026 RMK A01 T00741027  RH  049%=      5-min Rain = 0
KCH1 130342Z 05005KT 07/M03 A3026 RMK A01 T00741028  RH  048%=      5-min Rain = 0
KCH1 130343Z 05005KT 07/M03 A3026 RMK A01 T00741028  RH  048%=      5-min Rain = 0
KCH1 130344Z 05005KT 07/M03 A3026 RMK A01 T00741028  RH  048%=      5-min Rain = 0
KCH1 130345Z 05005KT 07/M03 A3026 RMK A01 T00741028  RH  048%=      5-min Rain = 0
KCH1 130346Z 05005KT 07/M03 A3026 RMK A01 T00741028  RH  048%=      5-min Rain = 0
KCH1 130347Z 05005KT 07/M03 A3026 RMK A01 T00741028  RH  048%=      5-min Rain = 0
KCH1 130348Z 05005KT 07/M03 A3026 RMK A01 T00741028  RH  048%=      5-min Rain = 0
KCH1 130349Z 05005KT 07/M03 A3026 RMK A01 T00741028  RH  048%=      5-min Rain = 0
KCH1 130350Z 05005KT 07/M03 A3026 RMK A01 T00741028  RH  048%=      5-min Rain = 0
KCH1 130351Z 04005KT 07/M03 A3026 RMK A01 T00741029  RH  048%=      5-min Rain = 0
KCH1 130352Z 04005KT 07/M03 A3026 RMK A01 T00731029  RH  048%=      5-min Rain = 0
KCH1 130353Z 04005KT 07/M03 A3026 RMK A01 T00741028  RH  048%=      5-min Rain = 0
KCH1 130354Z 05005KT 07/M03 A3026 RMK A01 T00731029  RH  048%=      5-min Rain = 0
KCH1 130355Z 04005KT 07/M03 A3026 RMK A01 T00731029  RH  048%=      5-min Rain = 0
KCH1 130356Z 05005KT 07/M03 A3026 RMK A01 T00731029  RH  048%=      5-min Rain = 0
KCH1 130357Z 05005KT 07/M03 A3026 RMK A01 T00741030  RH  048%=      5-min Rain = 0
KCH1 130358Z 05005KT 07/M03 A3026 RMK A01 T00741030  RH  048%=      5-min Rain = 0
KCH1 130359Z 05005KT 07/M03 A3026 RMK A01 T00741030  RH  047%=      5-min Rain = 0
KCH1 130400Z 06005KT 08/M03 A3026 RMK A01 T00751031  RH  047%=      5-min Rain = 0
KCH1 130401Z 05005KT 08/M03 A3026 RMK A01 T00751030  RH  047%=      5-min Rain = 0
KCH1 130402Z 06005KT 08/M03 A3026 RMK A01 T00751030  RH  047%=      5-min Rain = 0
KCH1 130403Z 05005KT 07/M03 A3026 RMK A01 T00741030  RH  048%=      5-min Rain = 0
KCH1 130404Z 05005KT 07/M03 A3026 RMK A01 T00731030  RH  048%=      5-min Rain = 0
KCH1 130405Z 05005KT 07/M03 A3026 RMK A01 T00731030  RH  048%=      5-min Rain = 0
KCH1 130406Z 05005KT 07/M03 A3026 RMK A01 T00731030  RH  048%=      5-min Rain = 0
KCH1 130407Z 05005KT 07/M03 A3026 RMK A01 T00721030  RH  048%=      5-min Rain = 0
KCH1 130408Z 05005KT 07/M03 A3026 RMK A01 T00721030  RH  048%=      5-min Rain = 0
KCH1 130409Z 05005KT 07/M03 A3026 RMK A01 T00721030  RH  048%=      5-min Rain = 0
KCH1 130410Z 05005KT 07/M03 A3026 RMK A01 T00721030  RH  048%=      5-min Rain = 0
KCH1 130411Z 05005KT 07/M03 A3026 RMK A01 T00721031  RH  048%=      5-min Rain = 0
KCH1 130412Z 06005KT 07/M03 A3026 RMK A01 T00721031  RH  048%=      5-min Rain = 0
KCH1 130413Z 06005KT 07/M03 A3026 RMK A01 T00721031  RH  048%=      5-min Rain = 0
KCH1 130414Z 05005KT 07/M03 A3026 RMK A01 T00721031  RH  048%=      5-min Rain = 0
KCH1 130415Z 06005KT 07/M03 A3026 RMK A01 T00721031  RH  048%=      5-min Rain = 0
KCH1 130416Z 05005KT 07/M03 A3026 RMK A01 T00721031  RH  048%=      5-min Rain = 0
KCH1 130417Z 05005KT 07/M03 A3026 RMK A01 T00721031  RH  048%=      5-min Rain = 0
KCH1 130418Z 05005KT 07/M03 A3026 RMK A01 T00721031  RH  048%=      5-min Rain = 0
KCH1 130419Z 05004KT 07/M03 A3026 RMK A01 T00721031  RH  048%=      5-min Rain = 0
KCH1 130420Z 06004KT 07/M03 A3026 RMK A01 T00721031  RH  048%=      5-min Rain = 0
KCH1 130421Z 05004KT 07/M03 A3026 RMK A01 T00711031  RH  048%=      5-min Rain = 0
KCH1 130422Z 05004KT 07/M03 A3026 RMK A01 T00711031  RH  048%=      5-min Rain = 0
KCH1 130423Z 06004KT 07/M03 A3026 RMK A01 T00711031  RH  048%=      5-min Rain = 0
KCH1 130424Z 05004KT 07/M03 A3026 RMK A01 T00711031  RH  048%=      5-min Rain = 0
KCH1 130425Z 05004KT 07/M03 A3026 RMK A01 T00701031  RH  048%=      5-min Rain = 0
KCH1 130426Z 05004KT 07/M03 A3026 RMK A01 T00701031  RH  048%=      5-min Rain = 0
KCH1 130427Z 05004KT 07/M03 A3026 RMK A01 T00701032  RH  048%=      5-min Rain = 0
KCH1 130428Z 05004KT 07/M03 A3026 RMK A01 T00701032  RH  048%=      5-min Rain = 0
KCH1 130429Z 05004KT 07/M03 A3026 RMK A01 T00701032  RH  048%=      5-min Rain = 0
KCH1 130430Z 05004KT 07/M03 A3026 RMK A01 T00701032  RH  048%=      5-min Rain = 0
KCH1 130431Z 05004KT 07/M03 A3026 RMK A01 T00701032  RH  048%=      5-min Rain = 0
KCH1 130432Z 05004KT 07/M03 A3026 RMK A01 T00701032  RH  048%=      5-min Rain = 0
KCH1 130433Z 05004KT 07/M03 A3026 RMK A01 T00701032  RH  048%=      5-min Rain = 0
KCH1 130434Z 05003KT 07/M03 A3026 RMK A01 T00711032  RH  048%=      5-min Rain = 0
KCH1 130435Z 04004KT 07/M03 A3026 RMK A01 T00711032  RH  048%=      5-min Rain = 0
KCH1 130436Z 04003KT 07/M03 A3026 RMK A01 T00711032  RH  048%=      5-min Rain = 0
KCH1 130437Z 04003KT 07/M03 A3026 RMK A01 T00711033  RH  048%=      5-min Rain = 0
KCH1 130438Z 03003KT 07/M03 A3027 RMK A01 T00721033  RH  047%=      5-min Rain = 0
KCH1 130439Z 04002KT 07/M03 A3027 RMK A01 T00721033  RH  047%=      5-min Rain = 0
KCH1 130440Z 04002KT 07/M03 A3027 RMK A01 T00721033  RH  048%=      5-min Rain = 0
KCH1 130441Z 03002KT 07/M03 A3027 RMK A01 T00711031  RH  048%=      5-min Rain = 0
KCH1 130442Z 03002KT 07/M03 A3027 RMK A01 T00691031  RH  049%=      5-min Rain = 0
KCH1 130443Z 03002KT 07/M03 A3027 RMK A01 T00671032  RH  049%=      5-min Rain = 0
KCH1 130444Z 02002KT 07/M03 A3027 RMK A01 T00651032  RH  050%=      5-min Rain = 0
KCH1 130445Z 01002KT 06/M03 A3027 RMK A01 T00641032  RH  050%=      5-min Rain = 0
KCH1 130446Z 01002KT 06/M03 A3027 RMK A01 T00631033  RH  050%=      5-min Rain = 0
KCH1 130447Z 02002KT 06/M03 A3027 RMK A01 T00631032  RH  050%=      5-min Rain = 0
KCH1 130448Z 01002KT 06/M03 A3027 RMK A01 T00641032  RH  050%=      5-min Rain = 0
KCH1 130449Z 02002KT 07/M03 A3027 RMK A01 T00651032  RH  050%=      5-min Rain = 0
KCH1 130450Z 02003KT 07/M03 A3027 RMK A01 T00661032  RH  050%=      5-min Rain = 0
KCH1 130451Z 03003KT 07/M03 A3027 RMK A01 T00661032  RH  049%=      5-min Rain = 0
KCH1 130452Z 03003KT 07/M03 A3027 RMK A01 T00671033  RH  049%=      5-min Rain = 0
KCH1 130453Z 04003KT 07/M03 A3026 RMK A01 T00681033  RH  049%=      5-min Rain = 0
KCH1 130454Z 04003KT 07/M03 A3026 RMK A01 T00691033  RH  048%=      5-min Rain = 0
KCH1 130455Z 04003KT 07/M03 A3026 RMK A01 T00701033  RH  048%=      5-min Rain = 0
KCH1 130456Z 04003KT 07/M03 A3026 RMK A01 T00701033  RH  048%=      5-min Rain = 0
KCH1 130457Z 03003KT 07/M03 A3026 RMK A01 T00701034  RH  048%=      5-min Rain = 0
KCH1 130458Z 04003KT 07/M03 A3026 RMK A01 T00711034  RH  047%=      5-min Rain = 0
KCH1 130459Z 04003KT 07/M03 A3026 RMK A01 T00711034  RH  047%=      5-min Rain = 0

Page generated in 0.1559 seconds.